Meteorology homepage Current Weather at the Dr. Eugene Chermack
Surface Weather Station at SUNY Oswego









Pressure, temperature, and humidity data

                                          ---------- 10-meter --------   -------------- 2-meter -----------------
Year    mnth   day  hh    mm     ss       TT TTmax TTmin RH Rhmax RHmin TT TTmax TTmin RH Rhmax RHmin Td Tdmax Tdmin

-sfc pressure --- 10-meter --- -- Visibility--
PP PPmax PPmin Tch Tchmax Tchmin Vis Vismax Vismin Current_weather

-- Ground -- --- Precipitation ----
Tg Tgmax Tgmin Vr_daily Vr_month Vr_year
2017	04	30	20	24	36 	  50.2	  57.9	  50.2	  82.3	 82.3	 58.8	  49.9	  58.0	  49.9	  81.0	  81.0	  58.2	  45.1	  45.9	  43.3	 1005.5	 1005.9	 1005.3	  44.5	  57.6	  44.5	65616	 65617	 65617	Clear	  53.1	  56.9	  53.0	  0.62	  6.05	 17.97	
2017	04	30	20	24	06 	  50.5	  58.0	  50.9	  81.9	 81.5	 58.7	  50.1	  58.0	  50.4	  80.7	  80.4	  58.1	  45.3	  45.9	  43.3	 1005.5	 1005.9	 1005.3	  46.2	  57.6	  46.2	65616	 65617	 65617	Clear	  53.1	  57.0	  53.0	  0.62	  6.05	 17.97	
2017	04	30	20	23	36 	  50.9	  58.0	  50.9	  81.5	 81.5	 58.7	  50.4	  58.0	  50.4	  80.4	  80.4	  58.1	  45.4	  45.9	  43.3	 1005.5	 1005.9	 1005.3	  46.2	  57.6	  46.2	65616	 65617	 65617	Clear	  53.2	  57.0	  53.0	  0.62	  6.05	 17.97	
2017	04	30	20	23	06 	  51.2	  58.0	  51.5	  81.2	 80.8	 58.6	  50.7	  58.0	  51.0	  80.1	  79.7	  58.0	  45.5	  45.9	  43.3	 1005.5	 1005.9	 1005.3	  46.6	  57.6	  46.4	65616	 65617	 65617	Clear	  53.2	  57.0	  53.0	  0.62	  6.05	 17.97	
2017	04	30	20	22	36 	  51.5	  58.0	  51.5	  80.8	 80.8	 58.6	  51.0	  58.0	  51.0	  79.7	  79.7	  58.0	  45.6	  45.9	  43.3	 1005.5	 1005.9	 1005.3	  46.6	  57.6	  46.4	65616	 65617	 65617	Clear	  53.2	  57.0	  53.0	  0.62	  6.05	 17.97	
2017	04	30	20	22	06 	  51.9	  58.0	  51.8	  80.4	 80.0	 58.5	  51.4	  58.1	  51.6	  79.3	  78.9	  57.9	  45.7	  45.9	  43.3	 1005.6	 1005.9	 1005.3	  46.4	  57.6	  46.4	65616	 65617	 65617	Clear	  53.1	  57.0	  53.0	  0.62	  6.05	 17.97	
2017	04	30	20	21	36 	  52.2	  58.0	  51.8	  80.0	 80.0	 58.5	  51.7	  58.1	  51.6	  78.9	  78.9	  57.9	  45.7	  45.9	  43.3	 1005.6	 1005.9	 1005.3	  46.4	  57.6	  46.4	65616	 65617	 65617	Clear	  53.2	  57.0	  53.0	  0.62	  6.05	 17.97	
2017	04	30	20	21	06 	  52.5	  58.1	  51.8	  79.7	 79.4	 58.5	  52.0	  58.1	  51.6	  78.5	  78.1	  57.9	  45.7	  45.9	  43.3	 1005.6	 1005.9	 1005.3	  48.4	  57.6	  48.4	65616	 65617	 65617	Clear	  53.2	  57.0	  53.0	  0.62	  6.05	 17.97	
2017	04	30	20	20	36 	  52.7	  58.1	  51.8	  79.4	 79.4	 58.5	  52.3	  58.1	  51.6	  78.1	  78.1	  57.9	  45.7	  45.9	  43.3	 1005.6	 1005.9	 1005.3	  48.4	  57.6	  48.4	65616	 65617	 65617	Clear	  53.2	  57.0	  53.0	  0.62	  6.05	 17.97	
2017	04	30	20	20	06 	  52.9	  58.1	  51.8	  79.2	 79.2	 58.5	  52.5	  58.2	  51.6	  77.8	  77.8	  57.9	  45.7	  45.9	  43.3	 1005.6	 1005.9	 1005.3	  51.6	  57.6	  48.7	65616	 65617	 65617	Clear	  53.2	  57.0	  53.0	  0.62	  6.05	 17.97	
2017	04	30	20	19	36 	  53.0	  58.1	  51.8	  79.0	 79.2	 58.5	  52.7	  58.2	  51.6	  77.5	  77.8	  57.9	  45.7	  45.9	  43.3	 1005.6	 1005.9	 1005.3	  51.6	  57.6	  48.7	65616	 65617	 65617	Clear	  53.1	  57.0	  53.0	  0.62	  6.05	 17.97	
2017	04	30	20	19	06 	  53.1	  58.2	  51.8	  78.7	 79.2	 58.4	  52.8	  58.2	  51.6	  77.2	  77.8	  57.8	  45.7	  45.8	  43.3	 1005.6	 1005.9	 1005.3	  52.3	  57.6	  48.7	65616	 65617	 65617	Clear	  53.2	  57.0	  53.0	  0.62	  6.05	 17.97	
2017	04	30	20	18	36 	  53.1	  58.2	  51.8	  78.4	 79.2	 58.4	  52.9	  58.2	  51.6	  76.8	  77.8	  57.8	  45.6	  45.8	  43.3	 1005.6	 1005.9	 1005.3	  52.3	  57.6	  48.7	65616	 65617	 65617	Clear	  53.2	  57.0	  53.0	  0.62	  6.05	 17.97	
2017	04	30	20	18	06 	  53.1	  58.2	  51.8	  78.2	 79.2	 58.3	  53.0	  58.2	  51.6	  76.5	  77.8	  57.7	  45.6	  45.7	  43.3	 1005.6	 1005.9	 1005.3	  52.8	  57.6	  48.7	65616	 65617	 65617	Clear	  53.2	  57.0	  53.0	  0.62	  6.05	 17.97	
2017	04	30	20	17	36 	  53.1	  58.2	  51.8	  77.9	 79.2	 58.3	  53.0	  58.2	  51.6	  76.3	  77.8	  57.7	  45.5	  45.7	  43.3	 1005.6	 1005.9	 1005.3	  52.8	  57.6	  48.7	65616	 65617	 65617	Clear	  53.1	  57.0	  53.0	  0.62	  6.05	 17.97	
2017	04	30	20	17	06 	  53.2	  58.2	  51.8	  77.8	 79.2	 58.2	  53.0	  58.2	  51.6	  76.1	  77.8	  57.6	  45.5	  45.6	  43.3	 1005.6	 1005.9	 1005.3	  53.0	  57.6	  48.7	65616	 65617	 65617	Clear	  53.2	  57.0	  53.0	  0.62	  6.05	 17.97	
2017	04	30	20	16	36 	  53.2	  58.2	  51.8	  77.6	 79.2	 58.2	  53.0	  58.2	  51.6	  75.9	  77.8	  57.6	  45.5	  45.6	  43.3	 1005.6	 1005.9	 1005.3	  53.0	  57.6	  48.7	65616	 65617	 65617	Clear	  53.1	  57.0	  53.0	  0.62	  6.05	 17.97	
2017	04	30	20	16	06 	  53.1	  58.2	  51.8	  77.6	 79.2	 58.1	  53.0	  58.2	  51.6	  75.8	  77.8	  57.5	  45.4	  45.6	  43.3	 1005.6	 1005.9	 1005.3	  53.0	  57.6	  48.7	65616	 65617	 65617	Clear	  53.1	  57.0	  53.0	  0.62	  6.05	 17.97	
2017	04	30	20	15	36 	  53.1	  58.2	  51.8	  77.5	 79.2	 58.1	  53.0	  58.2	  51.6	  75.8	  77.8	  57.5	  45.4	  45.6	  43.3	 1005.6	 1005.9	 1005.3	  53.0	  57.6	  48.7	65616	 65617	 65617	Clear	  53.1	  57.0	  53.0	  0.62	  6.05	 17.97	
2017	04	30	20	15	06 	  53.1	  58.2	  51.8	  77.5	 79.2	 58.0	  53.0	  58.3	  51.6	  75.8	  77.8	  57.4	  45.3	  45.5	  43.3	 1005.6	 1005.9	 1005.3	  53.1	  57.6	  48.7	65616	 65617	 65617	Clear	  53.1	  57.0	  53.0	  0.62	  6.05	 17.97	
2017	04	30	20	14	36 	  53.1	  58.2	  51.8	  77.5	 79.2	 58.0	  52.9	  58.3	  51.6	  75.7	  77.8	  57.4	  45.3	  45.5	  43.3	 1005.6	 1005.9	 1005.3	  53.1	  57.6	  48.7	65616	 65617	 65617	Clear	  53.1	  57.0	  53.0	  0.62	  6.05	 17.97	
2017	04	30	20	14	06 	  53.1	  58.2	  51.8	  77.5	 79.2	 58.0	  52.9	  58.3	  51.6	  75.8	  77.8	  57.4	  45.3	  45.4	  43.3	 1005.6	 1005.9	 1005.3	  53.0	  57.6	  48.7	65616	 65617	 65617	Clear	  53.1	  57.0	  53.0	  0.62	  6.05	 17.97	
2017	04	30	20	13	36 	  53.0	  58.2	  51.8	  77.6	 79.2	 58.0	  52.9	  58.3	  51.6	  75.8	  77.8	  57.4	  45.2	  45.4	  43.3	 1005.6	 1005.9	 1005.3	  53.0	  57.6	  48.7	65616	 65617	 65617	Clear	  53.2	  57.0	  53.0	  0.62	  6.05	 17.97	
2017	04	30	20	13	06 	  52.9	  58.2	  51.8	  77.6	 79.2	 58.0	  52.8	  58.3	  51.6	  75.8	  77.8	  57.4	  45.2	  45.4	  43.3	 1005.5	 1005.9	 1005.3	  53.0	  57.6	  48.7	65616	 65617	 65617	Clear	  53.2	  57.0	  53.0	  0.62	  6.05	 17.97	
2017	04	30	20	12	36 	  52.9	  58.2	  51.8	  77.7	 79.2	 58.0	  52.7	  58.3	  51.6	  75.9	  77.8	  57.4	  45.2	  45.4	  43.3	 1005.5	 1005.9	 1005.3	  53.0	  57.6	  48.7	65616	 65617	 65617	Clear	  53.2	  57.0	  53.0	  0.62	  6.05	 17.97	
2017	04	30	20	12	06 	  52.8	  58.2	  51.8	  77.8	 79.2	 58.0	  52.7	  58.3	  51.6	  76.0	  77.8	  57.4	  45.1	  45.3	  43.3	 1005.4	 1005.9	 1005.3	  52.8	  57.6	  48.7	65616	 65617	 65617	Clear	  53.1	  57.0	  53.0	  0.62	  6.05	 17.97	
2017	04	30	20	11	36 	  52.7	  58.2	  51.8	  77.9	 79.2	 58.0	  52.6	  58.3	  51.6	  76.1	  77.8	  57.4	  45.1	  45.3	  43.3	 1005.4	 1005.9	 1005.3	  52.8	  57.6	  48.7	65616	 65617	 65617	Clear	  53.1	  57.0	  53.0	  0.62	  6.05	 17.97	
2017	04	30	20	11	06 	  52.6	  58.2	  51.8	  78.0	 79.2	 58.0	  52.5	  58.3	  51.6	  76.2	  77.8	  57.4	  45.1	  45.2	  43.3	 1005.4	 1005.9	 1005.3	  50.9	  57.6	  48.7	65616	 65617	 65617	Clear	  53.2	  57.0	  53.0	  0.62	  6.05	 17.97	
2017	04	30	20	10	36 	  52.5	  58.2	  51.8	  78.2	 79.2	 58.0	  52.4	  58.3	  51.6	  76.3	  77.8	  57.4	  45.0	  45.2	  43.3	 1005.3	 1005.9	 1005.3	  50.9	  57.6	  48.7	65616	 65617	 65617	Clear	  53.1	  57.0	  53.0	  0.62	  6.05	 17.97	
2017	04	30	20	10	06 	  52.4	  58.2	  51.8	  78.3	 79.2	 58.0	  52.3	  58.3	  51.6	  76.5	  77.8	  57.4	  45.0	  45.1	  43.3	 1005.3	 1005.9	 1005.3	  48.7	  57.6	  48.7	65616	 65617	 65617	Clear	  53.1	  57.0	  53.0	  0.62	  6.05	 17.97	
2017	04	30	20	09	36 	  52.3	  58.2	  51.8	  78.5	 79.2	 58.0	  52.2	  58.3	  51.6	  76.7	  77.8	  57.4	  45.0	  45.1	  43.3	 1005.3	 1005.9	 1005.3	  48.7	  57.6	  48.7	65616	 65617	 65617	Clear	  53.1	  57.0	  53.0	  0.62	  6.05	 17.97	
2017	04	30	20	09	06 	  52.2	  58.2	  51.8	  78.7	 79.2	 58.0	  52.1	  58.3	  51.6	  76.9	  77.8	  57.4	  45.0	  45.1	  43.3	 1005.3	 1005.9	 1005.3	  49.8	  57.6	  48.7	65616	 65617	 65617	Clear	  53.1	  57.0	  53.0	  0.62	  6.05	 17.97	
2017	04	30	20	08	36 	  52.1	  58.2	  51.8	  78.9	 79.2	 58.0	  52.0	  58.3	  51.6	  77.1	  77.8	  57.4	  44.9	  45.1	  43.3	 1005.3	 1005.9	 1005.3	  49.8	  57.6	  48.7	65616	 65617	 65617	Clear	  53.1	  57.0	  53.0	  0.62	  6.05	 17.97	
2017	04	30	20	08	06 	  52.0	  58.2	  51.8	  79.0	 79.2	 58.0	  51.9	  58.3	  51.6	  77.3	  77.8	  57.4	  44.9	  45.0	  43.3	 1005.3	 1005.9	 1005.3	  50.0	  57.6	  48.7	65616	 65617	 65617	Clear	  53.1	  57.0	  53.0	  0.62	  6.05	 17.97	
2017	04	30	20	07	36 	  52.0	  58.2	  51.8	  79.1	 79.2	 58.0	  51.8	  58.3	  51.6	  77.5	  77.8	  57.4	  44.9	  45.0	  43.3	 1005.3	 1005.9	 1005.3	  50.0	  57.6	  48.7	65616	 65617	 65617	Clear	  53.1	  57.0	  53.0	  0.62	  6.05	 17.97	
2017	04	30	20	07	06 	  51.9	  58.2	  51.8	  79.2	 79.2	 57.9	  51.7	  58.3	  51.6	  77.6	  77.8	  57.4	  44.9	  45.0	  43.3	 1005.3	 1005.9	 1005.3	  50.0	  57.6	  48.7	65616	 65617	 65617	Clear	  53.2	  57.0	  53.0	  0.62	  6.05	 17.97	
2017	04	30	20	06	36 	  51.9	  58.2	  51.8	  79.2	 79.2	 57.9	  51.7	  58.3	  51.6	  77.7	  77.8	  57.4	  44.8	  45.0	  43.3	 1005.3	 1005.9	 1005.3	  50.0	  57.6	  48.7	65616	 65617	 65617	Clear	  53.2	  57.0	  53.0	  0.62	  6.05	 17.97	
2017	04	30	20	06	06 	  51.8	  58.2	  51.8	  79.2	 79.1	 57.8	  51.6	  58.3	  51.6	  77.8	  77.8	  57.3	  44.8	  44.9	  43.2	 1005.3	 1005.9	 1005.3	  50.8	  57.6	  48.7	65616	 65617	 65617	Clear	  53.1	  57.0	  53.0	  0.62	  6.05	 17.97	
2017	04	30	20	05	36 	  51.8	  58.2	  51.8	  79.1	 79.1	 57.8	  51.6	  58.3	  51.6	  77.8	  77.8	  57.3	  44.8	  44.9	  43.2	 1005.3	 1005.9	 1005.3	  50.8	  57.6	  48.7	65616	 65617	 65617	Clear	  53.2	  57.0	  53.0	  0.62	  6.05	 17.97	
2017	04	30	20	05	06 	  51.8	  58.2	  51.9	  79.0	 78.8	 57.7	  51.6	  58.3	  51.6	  77.7	  77.6	  57.2	  44.8	  44.9	  43.2	 1005.3	 1005.9	 1005.3	  48.7	  57.6	  48.7	65616	 65617	 65617	Clear	  53.2	  57.0	  53.0	  0.62	  6.05	 17.97	
2017	04	30	20	04	36 	  51.9	  58.2	  51.9	  78.8	 78.8	 57.7	  51.6	  58.3	  51.6	  77.6	  77.6	  57.2	  44.8	  44.9	  43.2	 1005.4	 1005.9	 1005.3	  48.7	  57.6	  48.7	65616	 65617	 65617	Clear	  53.1	  57.0	  53.0	  0.62	  6.05	 17.97	
2017	04	30	20	04	06 	  51.9	  58.2	  52.0	  78.6	 78.3	 57.7	  51.7	  58.3	  51.7	  77.4	  77.3	  57.2	  44.8	  44.8	  43.2	 1005.4	 1005.9	 1005.3	  49.5	  57.6	  49.5	65616	 65617	 65617	Clear	  53.1	  57.0	  53.0	  0.62	  6.05	 17.97	
2017	04	30	20	03	36 	  52.0	  58.2	  52.0	  78.3	 78.3	 57.7	  51.7	  58.3	  51.7	  77.3	  77.3	  57.2	  44.8	  44.8	  43.2	 1005.4	 1005.9	 1005.3	  49.5	  57.6	  49.5	65616	 65617	 65617	Clear	  53.1	  57.0	  53.0	  0.62	  6.05	 17.97	
2017	04	30	20	03	06 	  52.0	  58.2	  52.1	  78.1	 77.8	 57.7	  51.7	  58.3	  51.8	  77.1	  76.9	  57.2	  44.7	  44.8	  43.2	 1005.4	 1005.9	 1005.3	  51.6	  57.6	  51.6	65616	 65617	 65617	Clear	  53.2	  57.0	  53.0	  0.62	  6.05	 17.97	
2017	04	30	20	02	36 	  52.1	  58.2	  52.1	  77.8	 77.8	 57.7	  51.8	  58.3	  51.8	  76.9	  76.9	  57.2	  44.7	  44.8	  43.2	 1005.5	 1005.9	 1005.3	  51.6	  57.6	  51.6	65616	 65617	 65617	Clear	  53.1	  57.0	  53.0	  0.62	  6.05	 17.97	
2017	04	30	20	02	06 	  52.2	  58.2	  52.2	  77.5	 77.3	 57.7	  51.9	  58.3	  51.9	  76.7	  76.4	  57.2	  44.7	  44.8	  43.2	 1005.5	 1005.9	 1005.3	  51.6	  57.6	  51.6	65616	 65617	 65617	Clear	  53.2	  57.0	  53.0	  0.62	  6.05	 17.97	
2017	04	30	20	01	36 	  52.2	  58.2	  52.2	  77.3	 77.3	 57.7	  51.9	  58.3	  51.9	  76.4	  76.4	  57.2	  44.7	  44.8	  43.2	 1005.5	 1005.9	 1005.3	  51.6	  57.6	  51.6	65616	 65617	 65617	Clear	  53.2	  57.0	  53.0	  0.62	  6.05	 17.97	
2017	04	30	20	01	06 	  52.3	  58.2	  52.4	  77.0	 76.7	 57.7	  52.0	  58.3	  52.1	  76.2	  75.9	  57.2	  44.7	  44.7	  43.2	 1005.5	 1005.9	 1005.3	  51.8	  57.6	  51.8	65616	 65617	 65617	Clear	  53.1	  57.0	  53.0	  0.62	  6.05	 17.97	
2017	04	30	20	00	36 	  52.4	  58.2	  52.4	  76.7	 76.7	 57.7	  52.1	  58.3	  52.1	  75.9	  75.9	  57.2	  44.7	  44.7	  43.2	 1005.6	 1005.9	 1005.3	  51.8	  57.6	  51.8	65616	 65617	 65617	Clear	  53.1	  57.0	  53.0	  0.62	  6.05	 17.97	
2017	04	30	20	00	06 	  52.5	  58.2	  52.7	  76.3	 75.9	 57.7	  52.2	  58.3	  52.4	  75.6	  75.2	  57.2	  44.7	  44.7	  43.2	 1005.6	 1005.9	 1005.3	  51.8	  57.6	  51.8	65616	 65617	 65617	Clear	  53.2	  57.0	  53.0	  0.62	  6.05	 17.97	
2017	04	30	19	59	36 	  52.7	  58.2	  52.7	  75.9	 75.9	 57.7	  52.4	  58.3	  52.4	  75.2	  75.2	  57.2	  44.6	  44.7	  43.2	 1005.6	 1005.9	 1005.3	  51.8	  57.6	  51.8	65616	 65617	 65617	Clear	  53.1	  57.0	  53.0	  0.62	  6.05	 17.97	
2017	04	30	19	59	06 	  52.8	  58.2	  52.9	  75.5	 75.1	 57.7	  52.5	  58.3	  52.6	  74.9	  74.4	  57.1	  44.6	  44.7	  43.2	 1005.6	 1005.9	 1005.3	  52.0	  57.6	  52.0	65616	 65617	 65617	Clear	  53.1	  57.0	  53.0	  0.62	  6.05	 17.97	
2017	04	30	19	58	36 	  52.9	  58.2	  52.9	  75.1	 75.1	 57.7	  52.6	  58.3	  52.6	  74.4	  74.4	  57.1	  44.6	  44.7	  43.2	 1005.6	 1005.9	 1005.3	  52.0	  57.6	  52.0	65616	 65617	 65617	Clear	  53.1	  57.0	  53.0	  0.62	  6.05	 17.97	
2017	04	30	19	58	06 	  53.1	  58.2	  53.3	  74.6	 74.0	 57.7	  52.8	  58.3	  53.0	  73.9	  73.3	  57.1	  44.5	  44.7	  43.2	 1005.6	 1005.9	 1005.3	  52.2	  57.6	  52.2	65616	 65617	 65617	Clear	  53.1	  57.0	  53.0	  0.62	  6.05	 17.97	
2017	04	30	19	57	36 	  53.3	  58.2	  53.3	  74.0	 74.0	 57.7	  53.0	  58.3	  53.0	  73.3	  73.3	  57.1	  44.4	  44.7	  43.2	 1005.6	 1005.9	 1005.3	  52.2	  57.6	  52.2	65616	 65617	 65617	Clear	  53.1	  57.0	  53.0	  0.62	  6.05	 17.97	
2017	04	30	19	57	06 	  53.5	  58.2	  53.9	  73.2	 72.4	 57.7	  53.3	  58.3	  53.6	  72.5	  71.6	  57.1	  44.4	  44.6	  43.2	 1005.6	 1006.0	 1005.3	  52.4	  57.6	  52.4	65616	 65617	 65617	Clear	  53.1	  57.0	  53.0	  0.62	  6.05	 17.97	
2017	04	30	19	56	36 	  53.9	  58.2	  53.9	  72.4	 72.4	 57.7	  53.6	  58.3	  53.6	  71.6	  71.6	  57.1	  44.3	  44.6	  43.2	 1005.6	 1006.0	 1005.3	  52.4	  57.6	  52.4	65616	 65617	 65617	Clear	  53.1	  57.0	  53.0	  0.62	  6.05	 17.97	
2017	04	30	19	56	06 	  54.2	  58.2	  54.7	  71.4	 70.2	 57.5	  54.0	  58.4	  54.4	  70.5	  69.3	  57.0	  44.2	  44.6	  43.2	 1005.6	 1006.0	 1005.3	  52.8	  57.6	  52.6	65616	 65617	 65617	Clear	  53.1	  57.0	  53.0	  0.62	  6.05	 17.97	
2017	04	30	19	55	36 	  54.7	  58.2	  54.7	  70.2	 70.2	 57.5	  54.4	  58.4	  54.4	  69.3	  69.3	  57.0	  44.1	  44.6	  43.2	 1005.6	 1006.0	 1005.3	  52.8	  57.6	  52.6	65616	 65617	 65617	Clear	  53.1	  57.0	  53.0	  0.62	  6.05	 17.97	
2017	04	30	19	55	06 	  55.0	  58.2	  55.4	  69.0	 67.8	 57.5	  54.8	  58.4	  55.2	  68.1	  66.8	  56.9	  44.0	  44.4	  43.2	 1005.6	 1006.0	 1005.3	  53.0	  57.6	  52.3	65616	 65617	 65617	Clear	  53.1	  57.0	  53.0	  0.62	  6.05	 17.97	
2017	04	30	19	54	36 	  55.4	  58.2	  55.4	  67.8	 67.8	 57.5	  55.2	  58.4	  55.2	  66.8	  66.8	  56.9	  44.0	  44.4	  43.2	 1005.7	 1006.0	 1005.3	  53.0	  57.6	  52.3	65616	 65617	 65617	Clear	  53.1	  57.0	  53.0	  0.62	  6.05	 17.97	
2017	04	30	19	54	06 	  55.8	  58.3	  56.1	  66.7	 65.6	 57.4	  55.6	  58.4	  56.0	  65.6	  64.5	  56.8	  43.9	  44.2	  43.1	 1005.7	 1006.1	 1005.3	  53.2	  57.6	  52.3	65616	 65617	 65617	Clear	  53.1	  57.0	  53.0	  0.62	  6.05	 17.97	
2017	04	30	19	53	36 	  56.1	  58.3	  56.1	  65.6	 65.6	 57.4	  56.0	  58.4	  56.0	  64.5	  64.5	  56.8	  43.9	  44.2	  43.1	 1005.7	 1006.1	 1005.3	  53.2	  57.6	  52.3	65616	 65617	 65617	Clear	  53.1	  57.0	  53.0	  0.62	  6.05	 17.97	
2017	04	30	19	53	06 	  56.5	  58.3	  56.7	  64.6	 63.7	 57.1	  56.3	  58.5	  56.6	  63.5	  62.7	  56.5	  43.8	  44.0	  43.0	 1005.7	 1006.1	 1005.3	  53.7	  57.6	  52.3	65616	 65617	 65617	Clear	  53.1	  57.0	  53.0	  0.62	  6.05	 17.97	
2017	04	30	19	52	36 	  56.7	  58.3	  56.7	  63.7	 63.7	 57.1	  56.6	  58.5	  56.6	  62.7	  62.7	  56.5	  43.8	  44.0	  43.0	 1005.8	 1006.1	 1005.3	  53.7	  57.6	  52.3	65616	 65617	 65617	Clear	  53.1	  57.0	  53.0	  0.62	  6.05	 17.97	
2017	04	30	19	52	06 	  57.0	  58.4	  57.1	  62.9	 62.3	 56.8	  56.8	  58.5	  56.9	  62.0	  61.5	  56.3	  43.8	  43.9	  43.0	 1005.8	 1006.1	 1005.3	  56.3	  57.6	  52.3	65616	 65617	 65617	Clear	  53.1	  57.0	  53.0	  0.62	  6.05	 17.97	
2017	04	30	19	51	36 	  57.1	  58.4	  57.1	  62.3	 62.3	 56.8	  56.9	  58.5	  56.9	  61.5	  61.5	  56.3	  43.8	  43.9	  43.0	 1005.8	 1006.1	 1005.3	  56.3	  57.6	  52.3	65616	 65617	 65617	Clear	  53.1	  57.0	  53.0	  0.62	  6.05	 17.97	
2017	04	30	19	51	06 	  57.2	  58.4	  57.2	  61.9	 61.7	 56.7	  57.0	  58.5	  57.1	  61.2	  61.0	  56.1	  43.8	  43.8	  42.9	 1005.8	 1006.1	 1005.3	  57.0	  57.6	  52.3	65616	 65617	 65617	Clear	  53.1	  57.0	  53.0	  0.62	  6.05	 17.97	
2017	04	30	19	50	36 	  57.2	  58.4	  57.2	  61.7	 61.7	 56.7	  57.1	  58.5	  57.1	  61.0	  61.0	  56.1	  43.8	  43.8	  42.9	 1005.8	 1006.1	 1005.3	  57.0	  57.6	  52.3	65616	 65617	 65617	Clear	  53.1	  57.0	  53.0	  0.62	  6.05	 17.97	
2017	04	30	19	50	06 	  57.3	  58.4	  57.3	  61.5	 61.4	 56.5	  57.1	  58.6	  57.2	  60.9	  60.8	  55.9	  43.8	  43.8	  42.9	 1005.8	 1006.1	 1005.3	  57.0	  57.6	  52.3	65616	 65617	 65617	Clear	  53.1	  57.0	  53.0	  0.62	  6.05	 17.97	
2017	04	30	19	49	36 	  57.3	  58.4	  57.3	  61.4	 61.4	 56.5	  57.2	  58.6	  57.2	  60.8	  60.8	  55.9	  43.8	  43.8	  42.9	 1005.9	 1006.1	 1005.3	  57.0	  57.6	  52.3	65616	 65617	 65617	Clear	  53.1	  57.0	  53.0	  0.62	  6.05	 17.97	
2017	04	30	19	49	06 	  57.4	  58.4	  57.4	  61.3	 61.2	 56.4	  57.2	  58.6	  57.3	  60.7	  60.6	  55.7	  43.8	  43.8	  42.8	 1005.9	 1006.1	 1005.3	  57.0	  57.6	  52.3	65616	 65617	 65617	Clear	  53.1	  57.0	  53.0	  0.62	  6.05	 17.97	
2017	04	30	19	48	36 	  57.4	  58.4	  57.4	  61.2	 61.2	 56.4	  57.3	  58.6	  57.3	  60.6	  60.6	  55.7	  43.8	  43.8	  42.8	 1005.9	 1006.1	 1005.3	  57.0	  57.6	  52.3	65616	 65617	 65617	Clear	  53.1	  57.0	  53.0	  0.62	  6.05	 17.97	
2017	04	30	19	48	06 	  57.5	  58.5	  57.5	  61.0	 60.9	 56.3	  57.4	  58.7	  57.4	  60.5	  60.4	  55.7	  43.8	  43.8	  42.8	 1005.9	 1006.1	 1005.3	  57.1	  57.6	  52.3	65616	 65617	 65617	Clear	  53.1	  57.0	  53.0	  0.62	  6.05	 17.97	
2017	04	30	19	47	36 	  57.5	  58.5	  57.5	  60.9	 60.9	 56.3	  57.4	  58.7	  57.4	  60.4	  60.4	  55.7	  43.8	  43.8	  42.8	 1005.9	 1006.1	 1005.3	  57.1	  57.6	  52.3	65616	 65617	 65617	Clear	  53.1	  57.0	  53.0	  0.62	  6.05	 17.97	
2017	04	30	19	47	06 	  57.6	  58.5	  57.6	  60.8	 60.7	 56.3	  57.5	  58.7	  57.5	  60.2	  60.1	  55.7	  43.8	  43.8	  42.8	 1005.9	 1006.1	 1005.3	  57.3	  57.6	  52.3	65616	 65617	 65617	Clear	  53.1	  57.0	  53.0	  0.62	  6.05	 17.97	
2017	04	30	19	46	36 	  57.6	  58.5	  57.6	  60.7	 60.7	 56.3	  57.5	  58.7	  57.5	  60.1	  60.1	  55.7	  43.8	  43.8	  42.8	 1005.9	 1006.1	 1005.3	  57.3	  57.6	  52.3	65616	 65617	 65617	Clear	  53.1	  57.0	  53.0	  0.62	  6.05	 17.97	
2017	04	30	19	46	06 	  57.6	  58.5	  57.7	  60.6	 60.5	 56.3	  57.6	  58.7	  57.6	  60.1	  60.0	  55.6	  43.8	  43.8	  42.8	 1005.9	 1006.1	 1005.3	  57.5	  57.6	  52.3	65616	 65617	 65617	Clear	  53.1	  57.0	  53.0	  0.62	  6.05	 17.97	
2017	04	30	19	45	36 	  57.7	  58.5	  57.7	  60.5	 60.5	 56.3	  57.6	  58.7	  57.6	  60.0	  60.0	  55.6	  43.8	  43.8	  42.8	 1005.9	 1006.1	 1005.3	  57.5	  57.6	  52.3	65616	 65617	 65617	Clear	  53.1	  57.0	  53.0	  0.62	  6.05	 17.97	
2017	04	30	19	45	06 	  57.7	  58.6	  57.7	  60.5	 60.4	 56.3	  57.6	  58.7	  57.6	  60.0	  60.0	  55.5	  43.8	  43.8	  42.8	 1005.9	 1006.1	 1005.3	  57.2	  57.6	  51.3	65616	 65617	 65617	Clear	  53.1	  57.0	  53.0	  0.62	  6.05	 17.97	
2017	04	30	19	44	36 	  57.7	  58.6	  57.7	  60.4	 60.4	 56.3	  57.6	  58.7	  57.6	  60.0	  60.0	  55.5	  43.8	  43.8	  42.8	 1005.9	 1006.1	 1005.3	  57.2	  57.6	  51.3	65616	 65617	 65617	Clear	  53.1	  57.0	  53.0	  0.62	  6.05	 17.97	
2017	04	30	19	44	06 	  57.7	  58.6	  57.7	  60.4	 60.3	 56.3	  57.6	  58.8	  57.6	  60.0	  60.0	  55.4	  43.8	  43.8	  42.8	 1005.9	 1006.1	 1005.3	  56.7	  57.6	  51.3	65616	 65617	 65617	Clear	  53.1	  57.0	  53.0	  0.62	  6.05	 17.97	
2017	04	30	19	43	36 	  57.7	  58.6	  57.7	  60.3	 60.3	 56.3	  57.6	  58.8	  57.6	  60.0	  60.0	  55.4	  43.8	  43.8	  42.8	 1005.8	 1006.1	 1005.3	  56.7	  57.6	  51.3	65616	 65617	 65617	Clear	  53.1	  57.0	  53.0	  0.62	  6.05	 17.97	
2017	04	30	19	43	06 	  57.7	  58.6	  57.7	  60.3	 60.2	 56.1	  57.6	  58.8	  57.6	  60.0	  59.9	  55.3	  43.8	  43.8	  42.8	 1005.8	 1006.1	 1005.3	  57.6	  57.6	  51.3	65616	 65617	 65617	Clear	  53.1	  57.0	  53.0	  0.62	  6.05	 17.97	
2017	04	30	19	42	36 	  57.7	  58.6	  57.7	  60.2	 60.2	 56.1	  57.6	  58.8	  57.6	  59.9	  59.9	  55.3	  43.8	  43.8	  42.8	 1005.9	 1006.1	 1005.3	  57.6	  57.6	  51.3	65616	 65617	 65617	Clear	  53.1	  57.0	  53.0	  0.62	  6.05	 17.97	
2017	04	30	19	42	06 	  57.7	  58.7	  57.7	  60.2	 60.2	 56.0	  57.7	  58.9	  57.7	  59.9	  59.8	  55.1	  43.7	  43.8	  42.8	 1005.9	 1006.1	 1005.3	  57.6	  57.6	  51.3	65616	 65617	 65617	Clear	  53.1	  57.0	  53.0	  0.62	  6.05	 17.97	
2017	04	30	19	41	36 	  57.7	  58.7	  57.7	  60.2	 60.2	 56.0	  57.7	  58.9	  57.7	  59.8	  59.8	  55.1	  43.7	  43.8	  42.8	 1005.9	 1006.1	 1005.3	  57.6	  57.6	  51.3	65616	 65617	 65617	Clear	  53.1	  57.0	  53.0	  0.62	  6.05	 17.97	
2017	04	30	19	41	06 	  57.7	  58.7	  57.7	  60.1	 60.1	 56.0	  57.7	  59.0	  57.7	  59.8	  59.7	  55.1	  43.7	  43.8	  42.8	 1005.9	 1006.1	 1005.3	  57.6	  57.6	  51.3	65616	 65617	 65617	Clear	  53.1	  57.0	  53.0	  0.62	  6.05	 17.97	
2017	04	30	19	40	36 	  57.7	  58.7	  57.7	  60.1	 60.1	 56.0	  57.7	  59.0	  57.7	  59.7	  59.7	  55.1	  43.7	  43.8	  42.8	 1005.9	 1006.1	 1005.3	  57.6	  57.6	  51.3	65616	 65617	 65617	Clear	  53.1	  57.0	  53.0	  0.62	  6.05	 17.97	
2017	04	30	19	40	06 	  57.7	  58.8	  57.7	  60.0	 60.0	 55.9	  57.7	  59.1	  57.7	  59.6	  59.6	  55.0	  43.7	  43.7	  42.8	 1005.8	 1006.1	 1005.3	  57.5	  57.5	  51.3	65616	 65617	 65617	Clear	  53.1	  57.0	  53.0	  0.62	  6.05	 17.97	
2017	04	30	19	39	36 	  57.7	  58.8	  57.7	  60.0	 60.0	 55.9	  57.7	  59.1	  57.7	  59.6	  59.6	  55.0	  43.7	  43.7	  42.8	 1005.8	 1006.1	 1005.3	  57.5	  57.5	  51.3	65616	 65617	 65617	Clear	  53.1	  57.0	  53.0	  0.62	  6.05	 17.97	
2017	04	30	19	39	06 	  57.7	  58.8	  57.7	  60.0	 60.0	 55.9	  57.7	  59.1	  57.7	  59.6	  59.5	  55.0	  43.7	  43.7	  42.8	 1005.8	 1006.1	 1005.3	  55.8	  57.4	  51.3	65616	 65617	 65617	Clear	  53.1	  57.0	  53.0	  0.62	  6.05	 17.97	
2017	04	30	19	38	36 	  57.7	  58.8	  57.7	  60.0	 60.0	 55.9	  57.7	  59.1	  57.7	  59.5	  59.5	  55.0	  43.7	  43.7	  42.8	 1005.8	 1006.1	 1005.3	  55.8	  57.4	  51.3	65616	 65617	 65617	Clear	  53.1	  57.0	  53.0	  0.62	  6.05	 17.97	
2017	04	30	19	38	06 	  57.7	  58.8	  57.7	  60.0	 60.0	 55.9	  57.7	  59.1	  57.7	  59.5	  59.5	  55.0	  43.6	  43.7	  42.8	 1005.8	 1006.1	 1005.3	  54.7	  57.4	  51.3	65616	 65617	 65617	Clear	  53.1	  57.0	  53.0	  0.62	  6.05	 17.97	
2017	04	30	19	37	36 	  57.7	  58.8	  57.7	  60.0	 60.0	 55.9	  57.7	  59.1	  57.7	  59.5	  59.5	  55.0	  43.6	  43.7	  42.8	 1005.8	 1006.1	 1005.3	  54.7	  57.4	  51.3	65616	 65617	 65617	Clear	  53.1	  57.0	  53.0	  0.62	  6.05	 17.97	
2017	04	30	19	37	06 	  57.7	  58.8	  57.7	  60.0	 60.0	 55.8	  57.7	  59.1	  57.8	  59.5	  59.4	  55.0	  43.6	  43.7	  42.8	 1005.8	 1006.1	 1005.3	  55.3	  58.0	  51.3	65616	 65617	 65617	Clear	  53.1	  57.0	  53.0	  0.62	  6.05	 17.97	
2017	04	30	19	36	36 	  57.7	  58.8	  57.7	  60.0	 60.0	 55.8	  57.8	  59.1	  57.8	  59.4	  59.4	  55.0	  43.6	  43.7	  42.8	 1005.8	 1006.1	 1005.3	  55.3	  58.0	  51.3	65616	 65617	 65617	Clear	  53.1	  57.0	  53.0	  0.62	  6.05	 17.97	
2017	04	30	19	36	06 	  57.8	  58.8	  57.8	  59.9	 59.9	 55.7	  57.8	  59.1	  57.8	  59.3	  59.3	  54.9	  43.6	  43.6	  42.8	 1005.7	 1006.1	 1005.3	  55.3	  58.0	  51.3	65616	 65617	 65617	Clear	  53.1	  57.0	  53.0	  0.62	  6.05	 17.97	
2017	04	30	19	35	36 	  57.8	  58.8	  57.8	  59.9	 59.9	 55.7	  57.8	  59.1	  57.8	  59.3	  59.3	  54.9	  43.6	  43.6	  42.8	 1005.7	 1006.1	 1005.3	  55.3	  58.0	  51.3	65616	 65617	 65617	Clear	  53.1	  57.0	  53.0	  0.62	  6.05	 17.97	
2017	04	30	19	35	06 	  57.8	  58.8	  57.8	  59.8	 59.8	 55.6	  57.8	  59.1	  57.8	  59.2	  59.1	  54.9	  43.5	  43.6	  42.7	 1005.7	 1006.1	 1005.3	  56.5	  58.0	  51.3	65616	 65617	 65617	Clear	  53.1	  57.0	  53.0	  0.62	  6.05	 17.97	
2017	04	30	19	34	36 	  57.8	  58.8	  57.8	  59.8	 59.8	 55.6	  57.8	  59.1	  57.8	  59.1	  59.1	  54.9	  43.5	  43.6	  42.7	 1005.7	 1006.1	 1005.3	  56.5	  58.0	  51.3	65616	 65617	 65617	Clear	  53.1	  57.0	  53.0	  0.62	  6.05	 17.97	
2017	04	30	19	34	06 	  57.8	  58.8	  57.8	  59.7	 59.6	 55.6	  57.8	  59.1	  57.8	  59.1	  59.0	  54.9	  43.5	  43.6	  42.7	 1005.7	 1006.1	 1005.3	  57.4	  58.0	  51.3	65616	 65617	 65617	Clear	  53.1	  57.0	  53.0	  0.62	  6.05	 17.97	
2017	04	30	19	33	36 	  57.8	  58.8	  57.8	  59.6	 59.6	 55.6	  57.8	  59.1	  57.8	  59.0	  59.0	  54.9	  43.5	  43.6	  42.7	 1005.7	 1006.1	 1005.3	  57.4	  58.0	  51.3	65616	 65617	 65617	Clear	  53.1	  57.0	  53.0	  0.62	  6.05	 17.97	
2017	04	30	19	33	06 	  57.8	  58.8	  57.8	  59.5	 59.5	 55.6	  57.8	  59.1	  57.8	  58.9	  58.9	  54.9	  43.5	  43.5	  42.7	 1005.7	 1006.1	 1005.3	  57.2	  58.0	  51.3	65616	 65617	 65617	Clear	  53.1	  57.0	  53.0	  0.62	  6.05	 17.97	
2017	04	30	19	32	36 	  57.8	  58.8	  57.8	  59.5	 59.5	 55.6	  57.8	  59.1	  57.8	  58.9	  58.9	  54.9	  43.4	  43.5	  42.7	 1005.7	 1006.1	 1005.3	  57.2	  58.0	  51.3	65616	 65617	 65617	Clear	  53.1	  57.0	  53.0	  0.62	  6.05	 17.97	
2017	04	30	19	32	06 	  57.8	  58.8	  57.8	  59.4	 59.3	 55.6	  57.8	  59.1	  57.8	  58.8	  58.8	  54.9	  43.4	  43.5	  42.7	 1005.7	 1006.1	 1005.3	  56.3	  58.0	  51.3	65616	 65617	 65617	Clear	  53.1	  57.0	  53.0	  0.62	  6.05	 17.97	
2017	04	30	19	31	36 	  57.8	  58.8	  57.8	  59.3	 59.3	 55.6	  57.8	  59.1	  57.8	  58.8	  58.8	  54.9	  43.4	  43.5	  42.7	 1005.7	 1006.1	 1005.3	  56.3	  58.0	  51.3	65616	 65617	 65617	Clear	  53.1	  57.0	  53.0	  0.62	  6.05	 17.97	
2017	04	30	19	31	06 	  57.9	  58.8	  57.9	  59.3	 59.3	 55.6	  57.8	  59.1	  57.8	  58.7	  58.7	  54.9	  43.4	  43.5	  42.7	 1005.8	 1006.1	 1005.3	  56.3	  58.0	  50.8	65616	 65617	 65617	Clear	  53.1	  57.0	  53.0	  0.62	  6.05	 17.97	
2017	04	30	19	30	36 	  57.9	  58.8	  57.9	  59.3	 59.3	 55.6	  57.8	  59.1	  57.8	  58.7	  58.7	  54.9	  43.4	  43.5	  42.7	 1005.8	 1006.1	 1005.3	  56.3	  58.0	  50.8	65616	 65617	 65617	Clear	  53.1	  57.0	  53.0	  0.62	  6.05	 17.97	
2017	04	30	19	30	06 	  57.9	  58.8	  57.9	  59.2	 59.1	 55.6	  57.9	  59.1	  57.9	  58.6	  58.5	  54.9	  43.4	  43.5	  42.7	 1005.8	 1006.1	 1005.3	  56.6	  58.0	  50.8	65616	 65617	 65617	Clear	  53.1	  57.0	  53.0	  0.62	  6.05	 17.97	
2017	04	30	19	29	36 	  57.9	  58.8	  57.9	  59.1	 59.1	 55.6	  57.9	  59.1	  57.9	  58.5	  58.5	  54.9	  43.4	  43.5	  42.7	 1005.8	 1006.1	 1005.3	  56.6	  58.0	  50.8	65616	 65617	 65617	Clear	  53.1	  57.0	  53.0	  0.62	  6.05	 17.97	
2017	04	30	19	29	06 	  57.9	  58.8	  57.9	  59.1	 59.1	 55.6	  57.9	  59.1	  57.9	  58.5	  58.5	  54.9	  43.4	  43.5	  42.7	 1005.8	 1006.1	 1005.3	  56.9	  58.0	  50.8	65616	 65617	 65617	Clear	  53.1	  57.0	  53.0	  0.62	  6.05	 17.97	
2017	04	30	19	28	36 	  57.9	  58.8	  57.9	  59.1	 59.1	 55.6	  57.9	  59.1	  57.9	  58.5	  58.5	  54.9	  43.3	  43.5	  42.7	 1005.8	 1006.1	 1005.3	  56.9	  58.0	  50.8	65616	 65617	 65617	Clear	  53.1	  57.0	  53.0	  0.62	  6.05	 17.97	
2017	04	30	19	28	06 	  57.9	  58.8	  57.9	  59.1	 59.0	 55.6	  57.9	  59.1	  57.9	  58.4	  58.4	  54.9	  43.3	  43.5	  42.7	 1005.8	 1006.1	 1005.3	  57.1	  58.0	  50.8	65616	 65617	 65617	Clear	  53.1	  57.0	  53.0	  0.62	  6.05	 17.97	
2017	04	30	19	27	36 	  57.9	  58.8	  57.9	  59.0	 59.0	 55.6	  57.9	  59.1	  57.9	  58.4	  58.4	  54.9	  43.3	  43.5	  42.7	 1005.8	 1006.1	 1005.3	  57.1	  58.0	  50.8	65616	 65617	 65617	Clear	  53.1	  57.0	  53.0	  0.62	  6.05	 17.97	
2017	04	30	19	27	06 	  57.9	  58.8	  57.9	  59.0	 58.9	 55.6	  57.9	  59.1	  57.9	  58.3	  58.3	  54.9	  43.3	  43.5	  42.6	 1005.8	 1006.1	 1005.3	  55.5	  58.0	  50.8	65616	 65617	 65617	Clear	  53.1	  57.0	  53.0	  0.62	  6.05	 17.97	
2017	04	30	19	26	36 	  57.9	  58.8	  57.9	  58.9	 58.9	 55.6	  57.9	  59.1	  57.9	  58.3	  58.3	  54.9	  43.3	  43.5	  42.6	 1005.8	 1006.1	 1005.3	  55.5	  58.0	  50.8	65616	 65617	 65617	Clear	  53.1	  57.0	  53.0	  0.62	  6.05	 17.97	
2017	04	30	19	26	06 	  57.9	  58.8	  57.9	  58.9	 58.9	 55.6	  57.9	  59.1	  57.9	  58.3	  58.2	  54.9	  43.3	  43.5	  42.5	 1005.8	 1006.1	 1005.3	  55.1	  58.0	  50.8	65616	 65617	 65617	Clear	  53.1	  57.0	  53.0	  0.62	  6.05	 17.97	
2017	04	30	19	25	36 	  57.9	  58.8	  57.9	  58.9	 58.9	 55.6	  57.9	  59.1	  57.9	  58.2	  58.2	  54.9	  43.4	  43.5	  42.5	 1005.8	 1006.1	 1005.3	  55.1	  58.0	  50.8	65616	 65617	 65617	Clear	  53.1	  57.0	  53.0	  0.62	  6.05	 17.97	
2017	04	30	19	25	06 	  57.9	  58.8	  58.0	  58.8	 58.8	 55.6	  58.0	  59.1	  58.0	  58.2	  58.2	  54.9	  43.4	  43.5	  42.5	 1005.7	 1006.1	 1005.3	  56.8	  58.0	  50.8	65616	 65617	 65617	Clear	  53.1	  57.0	  53.0	  0.62	  6.05	 17.97	
2017	04	30	19	24	36 	  58.0	  58.8	  58.0	  58.8	 58.8	 55.6	  58.0	  59.1	  58.0	  58.2	  58.2	  54.9	  43.4	  43.5	  42.5	 1005.8	 1006.1	 1005.3	  56.8	  58.0	  50.8	65616	 65617	 65617	Clear	  53.1	  57.0	  53.0	  0.62	  6.05	 17.97	
2017	04	30	19	24	06 	  58.0	  58.8	  58.0	  58.8	 58.7	 55.6	  58.0	  59.1	  58.0	  58.1	  58.1	  54.9	  43.4	  43.5	  42.5	 1005.8	 1006.1	 1005.3	  57.3	  58.0	  50.8	65616	 65617	 65617	Clear	  53.1	  57.0	  53.0	  0.62	  6.05	 17.97	
2017	04	30	19	23	36 	  58.0	  58.8	  58.0	  58.7	 58.7	 55.6	  58.0	  59.1	  58.0	  58.1	  58.1	  54.9	  43.4	  43.5	  42.5	 1005.8	 1006.1	 1005.3	  57.3	  58.0	  50.8	65616	 65617	 65617	Clear	  53.1	  57.0	  53.0	  0.62	  6.05	 17.97	
2017	04	30	19	23	06 	  58.0	  58.8	  58.0	  58.6	 58.6	 55.6	  58.0	  59.1	  58.1	  58.0	  57.9	  54.9	  43.4	  43.5	  42.5	 1005.7	 1006.1	 1005.3	  55.8	  58.0	  50.8	65616	 65617	 65617	Clear	  53.1	  57.0	  53.0	  0.62	  6.05	 17.97	
2017	04	30	19	22	36 	  58.0	  58.8	  58.0	  58.6	 58.6	 55.6	  58.1	  59.1	  58.1	  57.9	  57.9	  54.9	  43.4	  43.5	  42.5	 1005.7	 1006.1	 1005.3	  55.8	  58.0	  50.8	65616	 65617	 65617	Clear	  53.1	  57.0	  53.0	  0.62	  6.05	 17.97	
2017	04	30	19	22	06 	  58.0	  58.8	  58.1	  58.5	 58.5	 55.6	  58.1	  59.1	  58.1	  57.9	  57.9	  54.9	  43.4	  43.5	  42.5	 1005.7	 1006.1	 1005.3	  55.7	  58.0	  50.8	65616	 65617	 65617	Clear	  53.1	  57.0	  53.0	  0.62	  6.05	 17.97	
2017	04	30	19	21	36 	  58.1	  58.8	  58.1	  58.5	 58.5	 55.6	  58.1	  59.1	  58.1	  57.9	  57.9	  54.9	  43.4	  43.5	  42.5	 1005.7	 1006.1	 1005.3	  55.7	  58.0	  50.8	65616	 65617	 65617	Clear	  53.1	  57.0	  53.0	  0.62	  6.05	 17.97	
2017	04	30	19	21	06 	  58.1	  58.8	  58.1	  58.5	 58.5	 55.6	  58.1	  59.1	  58.1	  57.9	  57.9	  54.9	  43.4	  43.5	  42.5	 1005.6	 1006.1	 1005.3	  56.1	  58.0	  50.8	65616	 65617	 65617	Clear	  53.1	  57.0	  53.0	  0.62	  6.05	 17.97	
2017	04	30	19	20	36 	  58.1	  58.8	  58.1	  58.5	 58.5	 55.6	  58.1	  59.1	  58.1	  57.9	  57.9	  54.9	  43.4	  43.5	  42.5	 1005.6	 1006.1	 1005.3	  56.1	  58.0	  50.8	65616	 65617	 65617	Clear	  53.1	  57.0	  53.0	  0.62	  6.05	 17.97	
2017	04	30	19	20	06 	  58.1	  58.8	  58.1	  58.5	 58.5	 55.6	  58.2	  59.1	  58.2	  57.9	  57.9	  54.9	  43.4	  43.5	  42.5	 1005.6	 1006.1	 1005.3	  54.8	  58.0	  50.8	65616	 65617	 65617	Clear	  53.1	  57.0	  53.0	  0.62	  6.05	 17.97	
2017	04	30	19	19	36 	  58.1	  58.8	  58.1	  58.5	 58.5	 55.6	  58.2	  59.1	  58.2	  57.9	  57.9	  54.9	  43.3	  43.5	  42.5	 1005.6	 1006.1	 1005.3	  54.8	  58.0	  50.8	65616	 65617	 65617	Clear	  53.1	  57.0	  53.0	  0.62	  6.05	 17.97	
2017	04	30	19	19	06 	  58.1	  58.8	  58.0	  58.5	 58.4	 55.6	  58.2	  59.1	  58.1	  57.9	  57.9	  54.9	  43.3	  43.5	  42.5	 1005.7	 1006.1	 1005.3	  55.0	  58.0	  50.8	65616	 65617	 65617	Clear	  53.1	  57.0	  53.0	  0.62	  6.05	 17.97	
2017	04	30	19	18	36 	  58.2	  58.8	  58.0	  58.4	 58.4	 55.6	  58.2	  59.1	  58.1	  57.8	  57.9	  54.9	  43.3	  43.5	  42.5	 1005.7	 1006.1	 1005.3	  55.0	  58.0	  50.8	65616	 65617	 65617	Clear	  53.1	  57.0	  53.0	  0.62	  6.05	 17.97	
2017	04	30	19	18	06 	  58.2	  58.8	  57.9	  58.3	 58.3	 55.6	  58.2	  59.1	  58.1	  57.7	  57.9	  54.9	  43.3	  43.5	  42.4	 1005.7	 1006.1	 1005.3	  56.6	  58.0	  50.8	65616	 65617	 65617	Clear	  53.1	  57.0	  53.0	  0.62	  6.05	 17.97	
2017	04	30	19	17	36 	  58.2	  58.8	  57.9	  58.3	 58.3	 55.6	  58.2	  59.1	  58.1	  57.7	  57.9	  54.9	  43.3	  43.5	  42.4	 1005.8	 1006.1	 1005.3	  56.6	  58.0	  50.8	65616	 65617	 65617	Clear	  53.1	  57.0	  53.0	  0.62	  6.05	 17.97	
2017	04	30	19	17	06 	  58.2	  58.8	  57.9	  58.3	 58.2	 55.6	  58.2	  59.1	  58.0	  57.6	  57.9	  54.9	  43.3	  43.5	  42.3	 1005.8	 1006.1	 1005.3	  56.2	  58.0	  50.8	65616	 65617	 65617	Clear	  53.1	  57.0	  53.0	  0.62	  6.05	 17.97	
2017	04	30	19	16	36 	  58.2	  58.8	  57.9	  58.2	 58.2	 55.6	  58.2	  59.1	  58.0	  57.6	  57.9	  54.9	  43.3	  43.5	  42.3	 1005.8	 1006.1	 1005.3	  56.2	  58.0	  50.8	65616	 65617	 65617	Clear	  53.1	  57.0	  53.0	  0.62	  6.05	 17.97	
2017	04	30	19	16	06 	  58.2	  58.8	  57.8	  58.1	 58.2	 55.6	  58.2	  59.1	  58.0	  57.5	  57.9	  54.9	  43.3	  43.5	  42.2	 1005.7	 1006.1	 1005.3	  55.1	  58.0	  50.8	65616	 65617	 65617	Clear	  53.1	  57.0	  53.0	  0.62	  6.05	 17.97	
2017	04	30	19	15	36 	  58.2	  58.8	  57.8	  58.1	 58.2	 55.6	  58.3	  59.1	  58.0	  57.5	  57.9	  54.9	  43.4	  43.5	  42.2	 1005.7	 1006.1	 1005.3	  55.1	  58.0	  50.8	65616	 65617	 65617	Clear	  53.1	  57.0	  53.0	  0.62	  6.05	 17.97	
2017	04	30	19	15	06 	  58.2	  58.8	  57.8	  58.0	 58.2	 55.6	  58.3	  59.1	  57.9	  57.4	  57.9	  54.9	  43.4	  43.5	  42.2	 1005.7	 1006.1	 1005.3	  53.3	  58.0	  50.8	65616	 65617	 65617	Clear	  53.1	  57.0	  53.0	  0.62	  6.05	 17.97	
2017	04	30	19	14	36 	  58.2	  58.8	  57.8	  58.0	 58.2	 55.6	  58.3	  59.1	  57.9	  57.4	  57.9	  54.9	  43.4	  43.5	  42.2	 1005.7	 1006.1	 1005.3	  53.3	  58.0	  50.8	65616	 65617	 65617	Clear	  53.1	  57.0	  53.0	  0.62	  6.05	 17.97	
2017	04	30	19	14	06 	  58.2	  58.8	  57.8	  58.0	 58.2	 55.6	  58.3	  59.1	  57.9	  57.4	  57.9	  54.9	  43.4	  43.5	  42.2	 1005.7	 1006.1	 1005.3	  53.0	  58.0	  50.8	65616	 65617	 65617	Clear	  53.1	  57.1	  53.0	  0.62	  6.05	 17.97	
2017	04	30	19	13	36 	  58.2	  58.8	  57.8	  58.0	 58.2	 55.6	  58.3	  59.1	  57.9	  57.5	  57.9	  54.9	  43.4	  43.5	  42.2	 1005.7	 1006.1	 1005.3	  53.0	  58.0	  50.8	65616	 65617	 65617	Clear	  53.1	  57.1	  53.0	  0.62	  6.05	 17.97	
2017	04	30	19	13	06 	  58.2	  58.8	  57.8	  58.0	 58.2	 55.6	  58.3	  59.1	  57.9	  57.6	  57.9	  54.9	  43.4	  43.5	  42.2	 1005.7	 1006.1	 1005.3	  55.0	  58.0	  50.8	65616	 65617	 65617	Clear	  53.1	  57.1	  53.0	  0.62	  6.05	 17.97	
2017	04	30	19	12	36 	  58.2	  58.8	  57.8	  58.1	 58.2	 55.6	  58.3	  59.1	  57.9	  57.6	  57.9	  54.9	  43.4	  43.5	  42.2	 1005.6	 1006.1	 1005.3	  55.0	  58.0	  50.8	65616	 65617	 65617	Clear	  53.1	  57.1	  53.0	  0.62	  6.05	 17.97	
2017	04	30	19	12	06 	  58.2	  58.8	  57.8	  58.1	 58.2	 55.6	  58.3	  59.1	  57.9	  57.7	  57.9	  54.9	  43.4	  43.5	  42.2	 1005.6	 1006.1	 1005.3	  55.8	  58.0	  50.8	65616	 65617	 65617	Clear	  53.1	  57.1	  53.0	  0.62	  6.05	 17.97	
2017	04	30	19	11	36 	  58.2	  58.8	  57.8	  58.1	 58.2	 55.6	  58.3	  59.1	  57.9	  57.7	  57.9	  54.9	  43.4	  43.5	  42.2	 1005.6	 1006.1	 1005.3	  55.8	  58.0	  50.8	65616	 65617	 65617	Clear	  53.1	  57.1	  53.0	  0.62	  6.05	 17.97	
2017	04	30	19	11	06 	  58.2	  58.8	  57.8	  58.1	 58.2	 55.6	  58.3	  59.1	  57.9	  57.7	  57.9	  54.9	  43.4	  43.5	  42.2	 1005.5	 1006.1	 1005.3	  54.6	  58.0	  49.4	65616	 65617	 65617	Clear	  53.1	  57.1	  53.0	  0.62	  6.05	 17.97	
2017	04	30	19	10	36 	  58.2	  58.8	  57.8	  58.2	 58.2	 55.6	  58.3	  59.1	  57.9	  57.8	  57.9	  54.9	  43.4	  43.5	  42.2	 1005.4	 1006.1	 1005.3	  54.6	  58.0	  49.4	65616	 65617	 65617	Clear	  53.1	  57.1	  53.0	  0.62	  6.05	 17.97	
2017	04	30	19	10	06 	  58.2	  58.8	  57.8	  58.2	 58.2	 55.6	  58.3	  59.1	  57.9	  57.9	  57.9	  54.9	  43.4	  43.5	  42.2	 1005.4	 1006.1	 1005.3	  54.6	  58.0	  49.4	65616	 65617	 65617	Clear	  53.1	  57.1	  53.0	  0.62	  6.05	 17.97	
2017	04	30	19	09	36 	  58.2	  58.8	  57.8	  58.2	 58.2	 55.6	  58.3	  59.1	  57.9	  57.9	  57.9	  54.9	  43.3	  43.5	  42.2	 1005.4	 1006.1	 1005.3	  54.6	  58.0	  49.4	65616	 65617	 65617	Clear	  53.1	  57.1	  53.0	  0.62	  6.05	 17.97	
2017	04	30	19	09	06 	  58.2	  58.8	  57.8	  58.2	 58.2	 55.6	  58.3	  59.1	  57.9	  57.8	  57.7	  54.9	  43.3	  43.4	  42.2	 1005.3	 1006.1	 1005.3	  55.3	  58.0	  49.4	65616	 65617	 65617	Clear	  53.1	  57.1	  53.0	  0.62	  6.05	 17.97	
2017	04	30	19	08	36 	  58.2	  58.8	  57.8	  58.2	 58.2	 55.6	  58.3	  59.1	  57.9	  57.7	  57.7	  54.9	  43.3	  43.4	  42.2	 1005.3	 1006.1	 1005.3	  55.3	  58.0	  49.4	65616	 65617	 65617	Clear	  53.1	  57.1	  53.0	  0.62	  6.05	 17.97	
2017	04	30	19	08	06 	  58.2	  58.8	  57.8	  58.1	 58.1	 55.6	  58.3	  59.1	  57.9	  57.7	  57.6	  54.9	  43.2	  43.4	  42.2	 1005.3	 1006.1	 1005.3	  54.9	  58.0	  49.4	65616	 65617	 65617	Clear	  53.1	  57.1	  53.0	  0.62	  6.05	 17.97	
2017	04	30	19	07	36 	  58.2	  58.8	  57.8	  58.1	 58.1	 55.6	  58.3	  59.1	  57.9	  57.6	  57.6	  54.9	  43.2	  43.4	  42.2	 1005.4	 1006.1	 1005.3	  54.9	  58.0	  49.4	65616	 65617	 65617	Clear	  53.1	  57.1	  53.0	  0.62	  6.05	 17.97	
2017	04	30	19	07	06 	  58.2	  58.8	  57.8	  58.0	 58.0	 55.6	  58.3	  59.1	  57.9	  57.5	  57.5	  54.9	  43.2	  43.3	  42.2	 1005.4	 1006.1	 1005.4	  55.0	  58.0	  49.4	65616	 65617	 65617	Clear	  53.1	  57.1	  53.0	  0.62	  6.05	 17.97	
2017	04	30	19	06	36 	  58.2	  58.8	  57.8	  57.9	 58.0	 55.6	  58.3	  59.1	  57.9	  57.4	  57.5	  54.9	  43.2	  43.3	  42.2	 1005.4	 1006.1	 1005.4	  55.0	  58.0	  49.4	65616	 65617	 65617	Clear	  53.1	  57.1	  53.0	  0.62	  6.05	 17.97	
2017	04	30	19	06	06 	  58.2	  58.8	  57.8	  57.9	 58.0	 55.6	  58.3	  59.1	  57.9	  57.3	  57.5	  54.9	  43.2	  43.3	  42.2	 1005.4	 1006.1	 1005.4	  54.9	  58.0	  49.4	65616	 65617	 65617	Clear	  53.1	  57.1	  53.0	  0.62	  6.05	 17.97	
2017	04	30	19	05	36 	  58.2	  58.8	  57.8	  57.8	 58.0	 55.6	  58.3	  59.1	  57.9	  57.2	  57.5	  54.9	  43.2	  43.3	  42.2	 1005.4	 1006.1	 1005.4	  54.9	  58.0	  49.4	65616	 65617	 65617	Clear	  53.1	  57.1	  53.0	  0.62	  6.05	 17.97	
2017	04	30	19	05	06 	  58.2	  58.8	  57.8	  57.7	 58.0	 55.6	  58.3	  59.1	  57.9	  57.2	  57.5	  54.9	  43.2	  43.3	  42.2	 1005.5	 1006.1	 1005.4	  53.7	  58.0	  49.4	65616	 65617	 65617	Clear	  53.1	  57.1	  53.0	  0.62	  6.05	 17.97	
2017	04	30	19	04	36 	  58.2	  58.8	  57.8	  57.7	 58.0	 55.6	  58.3	  59.1	  57.9	  57.2	  57.5	  54.9	  43.2	  43.3	  42.2	 1005.5	 1006.1	 1005.4	  53.7	  58.0	  49.4	65616	 65617	 65617	Clear	  53.1	  57.1	  53.0	  0.62	  6.05	 17.97	
2017	04	30	19	04	06 	  58.2	  58.8	  57.8	  57.7	 58.0	 55.6	  58.3	  59.1	  57.9	  57.2	  57.5	  54.9	  43.2	  43.3	  42.1	 1005.5	 1006.1	 1005.4	  52.6	  58.0	  49.4	65616	 65617	 65617	Clear	  53.1	  57.1	  53.0	  0.62	  6.05	 17.97	
2017	04	30	19	03	36 	  58.2	  58.8	  57.8	  57.8	 58.0	 55.6	  58.3	  59.1	  57.9	  57.2	  57.5	  54.9	  43.2	  43.3	  42.1	 1005.5	 1006.1	 1005.4	  52.6	  58.0	  49.4	65616	 65617	 65617	Clear	  53.1	  57.1	  53.0	  0.62	  6.05	 17.97	
2017	04	30	19	03	06 	  58.2	  58.8	  57.8	  57.8	 58.0	 55.6	  58.3	  59.1	  57.9	  57.3	  57.5	  54.9	  43.2	  43.3	  42.0	 1005.5	 1006.1	 1005.5	  53.3	  58.0	  49.4	65616	 65617	 65617	Clear	  53.1	  57.1	  53.0	  0.62	  6.05	 17.97	
2017	04	30	19	02	36 	  58.2	  58.8	  57.8	  57.8	 58.0	 55.6	  58.3	  59.1	  57.9	  57.4	  57.5	  54.9	  43.2	  43.3	  42.0	 1005.5	 1006.1	 1005.5	  53.3	  58.0	  49.4	65616	 65617	 65617	Clear	  53.0	  57.1	  53.0	  0.62	  6.05	 17.97	
2017	04	30	19	02	06 	  58.2	  58.8	  57.8	  57.9	 58.0	 55.6	  58.3	  59.1	  57.9	  57.4	  57.5	  54.9	  43.2	  43.3	  41.9	 1005.6	 1006.1	 1005.6	  53.6	  58.0	  49.4	65616	 65617	 65617	Clear	  53.1	  57.1	  53.0	  0.62	  6.05	 17.97	
2017	04	30	19	01	36 	  58.2	  58.8	  57.8	  57.9	 58.0	 55.6	  58.3	  59.1	  57.9	  57.5	  57.5	  54.9	  43.2	  43.3	  41.9	 1005.7	 1006.1	 1005.6	  53.6	  58.0	  49.4	65616	 65617	 65617	Clear	  53.1	  57.1	  53.0	  0.62	  6.05	 17.97	
2017	04	30	19	01	06 	  58.2	  58.8	  57.8	  57.9	 58.0	 55.6	  58.3	  59.1	  57.9	  57.5	  57.5	  54.9	  43.2	  43.3	  41.9	 1005.7	 1006.1	 1005.7	  55.0	  58.0	  49.4	65616	 65617	 65617	Clear	  53.1	  57.1	  53.0	  0.62	  6.05	 17.97	
2017	04	30	19	00	36 	  58.2	  58.8	  57.8	  58.0	 58.0	 55.6	  58.3	  59.1	  57.9	  57.5	  57.5	  54.9	  43.2	  43.3	  41.9	 1005.8	 1006.1	 1005.7	  55.0	  58.0	  49.4	65616	 65617	 65617	Clear	  53.0	  57.1	  53.0	  0.62	  6.05	 17.97	
2017	04	30	19	00	06 	  58.2	  58.8	  57.8	  57.9	 57.8	 55.6	  58.3	  59.1	  57.9	  57.4	  57.3	  54.9	  43.2	  43.2	  41.9	 1005.8	 1006.1	 1005.7	  55.9	  58.0	  49.2	65616	 65617	 65617	Clear	  53.1	  57.1	  53.0	  0.62	  6.05	 17.97	
2017	04	30	18	59	36 	  58.2	  58.8	  57.8	  57.8	 57.8	 55.6	  58.3	  59.1	  57.9	  57.3	  57.3	  54.9	  43.2	  43.2	  41.9	 1005.8	 1006.1	 1005.7	  55.9	  58.0	  49.2	65616	 65617	 65617	Clear	  53.0	  57.1	  53.0	  0.62	  6.05	 17.97	
2017	04	30	18	59	06 	  58.2	  58.8	  57.8	  57.7	 57.7	 55.6	  58.3	  59.1	  57.9	  57.2	  57.1	  54.9	  43.2	  43.2	  41.9	 1005.9	 1006.2	 1005.7	  55.3	  58.0	  49.0	65616	 65617	 65617	Clear	  53.1	  57.1	  53.0	  0.62	  6.05	 17.97	
2017	04	30	18	58	36 	  58.2	  58.8	  57.8	  57.7	 57.7	 55.6	  58.3	  59.1	  57.9	  57.1	  57.1	  54.9	  43.2	  43.2	  41.9	 1005.9	 1006.2	 1005.7	  55.3	  58.0	  49.0	65616	 65617	 65617	Clear	  53.1	  57.1	  53.0	  0.62	  6.05	 17.97	
2017	04	30	18	58	06 	  58.2	  58.8	  57.8	  57.7	 57.7	 55.6	  58.3	  59.1	  57.9	  57.1	  57.1	  54.9	  43.2	  43.2	  41.9	 1005.9	 1006.2	 1005.7	  56.8	  58.0	  49.0	65616	 65617	 65617	Clear	  53.1	  57.1	  53.0	  0.62	  6.05	 17.97	
2017	04	30	18	57	36 	  58.2	  58.8	  57.8	  57.7	 57.7	 55.6	  58.3	  59.1	  57.9	  57.1	  57.1	  54.9	  43.2	  43.2	  41.9	 1005.9	 1006.2	 1005.7	  56.8	  58.0	  49.0	65616	 65617	 65617	Clear	  53.1	  57.1	  53.0	  0.62	  6.05	 17.97	
2017	04	30	18	57	06 	  58.2	  58.8	  57.8	  57.7	 57.6	 55.6	  58.3	  59.1	  57.9	  57.1	  57.0	  54.9	  43.1	  43.2	  41.9	 1005.9	 1006.3	 1005.7	  55.2	  58.0	  49.0	65616	 65617	 65617	Clear	  53.1	  57.1	  53.0	  0.62	  6.05	 17.97	
2017	04	30	18	56	36 	  58.2	  58.8	  57.8	  57.6	 57.6	 55.6	  58.3	  59.1	  57.9	  57.0	  57.0	  54.9	  43.1	  43.2	  41.9	 1005.9	 1006.3	 1005.7	  55.2	  58.0	  49.0	65616	 65617	 65617	Clear	  53.1	  57.1	  53.0	  0.62	  6.05	 17.97	
2017	04	30	18	56	06 	  58.2	  58.8	  57.8	  57.6	 57.5	 55.6	  58.4	  59.1	  57.9	  57.0	  56.9	  54.9	  43.1	  43.2	  41.8	 1005.9	 1006.3	 1005.7	  52.3	  58.0	  49.0	65616	 65617	 65617	Clear	  53.1	  57.1	  53.0	  0.62	  6.05	 17.97	
2017	04	30	18	55	36 	  58.2	  58.8	  57.8	  57.5	 57.5	 55.6	  58.4	  59.1	  57.9	  56.9	  56.9	  54.9	  43.1	  43.2	  41.8	 1005.9	 1006.3	 1005.7	  52.3	  58.0	  49.0	65616	 65617	 65617	Clear	  53.1	  57.1	  53.0	  0.62	  6.05	 17.97	
2017	04	30	18	55	06 	  58.2	  58.8	  57.7	  57.5	 57.4	 55.6	  58.4	  59.1	  57.9	  56.9	  56.9	  54.9	  43.0	  43.2	  41.8	 1006.0	 1006.3	 1005.7	  53.1	  58.0	  49.0	65616	 65617	 65617	Clear	  53.1	  57.1	  53.0	  0.62	  6.05	 17.97	
2017	04	30	18	54	36 	  58.3	  58.8	  57.7	  57.4	 57.4	 55.6	  58.4	  59.1	  57.9	  56.9	  56.9	  54.9	  43.0	  43.2	  41.8	 1006.0	 1006.3	 1005.7	  53.1	  58.0	  49.0	65616	 65617	 65617	Clear	  53.1	  57.1	  53.0	  0.62	  6.05	 17.97	
2017	04	30	18	54	06 	  58.3	  58.8	  57.7	  57.4	 57.3	 55.6	  58.4	  59.1	  57.8	  56.9	  56.8	  54.9	  43.0	  43.1	  41.8	 1006.1	 1006.5	 1005.7	  56.1	  58.0	  49.0	65616	 65617	 65617	Clear	  53.1	  57.1	  53.0	  0.62	  6.05	 17.97	
2017	04	30	18	53	36 	  58.3	  58.8	  57.7	  57.3	 57.3	 55.6	  58.4	  59.1	  57.8	  56.8	  56.8	  54.9	  42.9	  43.1	  41.8	 1006.1	 1006.5	 1005.7	  56.1	  58.0	  49.0	65616	 65617	 65617	Clear	  53.1	  57.1	  53.0	  0.62	  6.05	 17.97	
2017	04	30	18	53	06 	  58.3	  58.8	  57.7	  57.2	 57.1	 55.6	  58.5	  59.1	  57.8	  56.6	  56.4	  54.9	  42.9	  43.0	  41.8	 1006.1	 1006.5	 1005.7	  57.0	  58.0	  49.0	65616	 65617	 65617	Clear	  53.1	  57.1	  53.0	  0.62	  6.05	 17.97	
2017	04	30	18	52	36 	  58.3	  58.8	  57.7	  57.0	 57.1	 55.6	  58.5	  59.1	  57.8	  56.4	  56.4	  54.9	  42.9	  43.0	  41.8	 1006.1	 1006.5	 1005.7	  57.0	  58.0	  49.0	65616	 65617	 65617	Clear	  53.1	  57.1	  53.0	  0.62	  6.05	 17.97	
2017	04	30	18	52	06 	  58.3	  58.8	  57.7	  56.9	 57.1	 55.6	  58.5	  59.1	  57.8	  56.3	  56.4	  54.9	  42.9	  43.0	  41.8	 1006.0	 1006.5	 1005.7	  56.6	  58.0	  49.0	65616	 65617	 65617	Clear	  53.1	  57.1	  53.0	  0.62	  6.05	 17.97	
2017	04	30	18	51	36 	  58.4	  58.8	  57.7	  56.8	 57.1	 55.6	  58.5	  59.1	  57.8	  56.2	  56.4	  54.9	  42.9	  43.0	  41.8	 1006.0	 1006.5	 1005.7	  56.6	  58.0	  49.0	65616	 65617	 65617	Clear	  53.1	  57.1	  53.0	  0.62	  6.05	 17.97	
2017	04	30	18	51	06 	  58.4	  58.8	  57.6	  56.7	 57.1	 55.6	  58.5	  59.1	  57.8	  56.1	  56.4	  54.9	  42.9	  43.0	  41.8	 1006.0	 1006.5	 1005.7	  55.7	  58.0	  49.0	65616	 65617	 65617	Clear	  53.1	  57.1	  53.0	  0.62	  6.05	 17.97	
2017	04	30	18	50	36 	  58.4	  58.8	  57.6	  56.6	 57.1	 55.6	  58.6	  59.1	  57.8	  56.0	  56.4	  54.9	  42.9	  43.0	  41.8	 1006.0	 1006.5	 1005.7	  55.7	  58.0	  49.0	65616	 65617	 65617	Clear	  53.1	  57.1	  53.0	  0.62	  6.05	 17.97	
2017	04	30	18	50	06 	  58.4	  58.8	  57.6	  56.6	 57.1	 55.6	  58.6	  59.1	  57.8	  55.9	  56.4	  54.9	  42.9	  43.0	  41.8	 1006.0	 1006.5	 1005.7	  54.6	  58.0	  49.0	65616	 65617	 65617	Clear	  53.1	  57.1	  53.0	  0.62	  6.05	 17.97	
2017	04	30	18	49	36 	  58.4	  58.8	  57.6	  56.5	 57.1	 55.6	  58.6	  59.1	  57.8	  55.8	  56.4	  54.9	  42.8	  43.0	  41.8	 1006.0	 1006.5	 1005.7	  54.6	  58.0	  49.0	65616	 65617	 65617	Clear	  53.1	  57.1	  53.0	  0.62	  6.05	 17.97	
2017	04	30	18	49	06 	  58.4	  58.8	  57.6	  56.4	 57.1	 55.6	  58.6	  59.1	  57.8	  55.7	  56.4	  54.9	  42.8	  43.0	  41.8	 1006.1	 1006.5	 1005.7	  53.6	  58.0	  49.0	65616	 65617	 65617	Clear	  53.1	  57.1	  53.0	  0.62	  6.05	 17.97	
2017	04	30	18	48	36 	  58.4	  58.8	  57.6	  56.4	 57.1	 55.6	  58.6	  59.1	  57.8	  55.7	  56.4	  54.9	  42.8	  43.0	  41.8	 1006.0	 1006.5	 1005.7	  53.6	  58.0	  49.0	65616	 65617	 65617	Clear	  53.1	  57.1	  53.0	  0.62	  6.05	 17.97	
2017	04	30	18	48	06 	  58.5	  58.8	  57.6	  56.3	 57.1	 55.6	  58.7	  59.1	  57.8	  55.7	  56.4	  54.9	  42.8	  43.0	  41.8	 1006.0	 1006.6	 1005.7	  53.6	  58.0	  49.0	65616	 65617	 65617	Clear	  53.1	  57.1	  53.0	  0.62	  6.05	 17.97	
2017	04	30	18	47	36 	  58.5	  58.8	  57.6	  56.4	 57.1	 55.6	  58.7	  59.1	  57.8	  55.7	  56.4	  54.9	  42.8	  43.0	  41.8	 1006.1	 1006.6	 1005.7	  53.6	  58.0	  49.0	65616	 65617	 65617	Clear	  53.0	  57.1	  53.0	  0.62	  6.05	 17.97	
2017	04	30	18	47	06 	  58.5	  58.8	  57.6	  56.4	 57.1	 55.6	  58.7	  59.1	  57.8	  55.7	  56.4	  54.9	  42.8	  43.0	  41.8	 1006.0	 1006.6	 1005.7	  52.6	  58.0	  49.0	65616	 65617	 65617	Clear	  53.1	  57.1	  53.0	  0.62	  6.05	 17.97	
2017	04	30	18	46	36 	  58.5	  58.8	  57.6	  56.4	 57.1	 55.6	  58.7	  59.1	  57.8	  55.7	  56.4	  54.9	  42.8	  43.0	  41.8	 1006.0	 1006.6	 1005.7	  52.6	  58.0	  49.0	65616	 65617	 65617	Clear	  53.1	  57.1	  53.0	  0.62	  6.05	 17.97	
2017	04	30	18	46	06 	  58.5	  58.8	  57.6	  56.3	 57.1	 55.6	  58.7	  59.1	  57.8	  55.6	  56.4	  54.8	  42.8	  43.0	  41.8	 1006.0	 1006.6	 1005.7	  51.3	  58.0	  49.0	65616	 65617	 65617	Clear	  53.1	  57.1	  53.0	  0.62	  6.05	 17.97	
2017	04	30	18	45	36 	  58.5	  58.8	  57.6	  56.3	 57.1	 55.6	  58.7	  59.1	  57.8	  55.6	  56.4	  54.8	  42.8	  43.0	  41.8	 1006.0	 1006.6	 1005.7	  51.3	  58.0	  49.0	65616	 65617	 65617	Clear	  53.1	  57.1	  53.0	  0.62	  6.05	 17.97	
2017	04	30	18	45	06 	  58.6	  58.8	  57.6	  56.3	 57.1	 55.6	  58.7	  59.1	  57.8	  55.5	  56.4	  54.6	  42.8	  43.0	  41.8	 1006.0	 1006.6	 1005.7	  52.1	  58.0	  49.0	65616	 65617	 65617	Clear	  53.1	  57.1	  53.0	  0.62	  6.05	 17.97	
2017	04	30	18	44	36 	  58.6	  58.8	  57.6	  56.3	 57.1	 55.6	  58.7	  59.1	  57.8	  55.5	  56.4	  54.6	  42.8	  43.0	  41.8	 1006.0	 1006.6	 1005.7	  52.1	  58.0	  49.0	65616	 65617	 65617	Clear	  53.1	  57.1	  53.0	  0.62	  6.05	 17.97	
2017	04	30	18	44	06 	  58.6	  58.8	  57.6	  56.3	 57.1	 55.5	  58.8	  59.1	  57.8	  55.4	  56.4	  54.4	  42.9	  43.0	  41.7	 1006.0	 1006.6	 1005.7	  54.6	  58.0	  49.0	65616	 65617	 65617	Clear	  53.1	  57.1	  53.0	  0.62	  6.05	 17.97	
2017	04	30	18	43	36 	  58.6	  58.8	  57.6	  56.2	 57.1	 55.5	  58.8	  59.1	  57.8	  55.3	  56.4	  54.4	  42.9	  43.0	  41.7	 1005.9	 1006.6	 1005.7	  54.6	  58.0	  49.0	65616	 65617	 65617	Clear	  53.1	  57.1	  53.0	  0.62	  6.05	 17.97	
2017	04	30	18	43	06 	  58.6	  58.8	  57.6	  56.2	 57.1	 55.3	  58.8	  59.1	  57.8	  55.3	  56.4	  54.2	  42.9	  43.0	  41.7	 1005.9	 1006.6	 1005.7	  54.8	  58.0	  49.0	65616	 65617	 65617	Clear	  53.1	  57.1	  53.0	  0.62	  6.05	 17.97	
2017	04	30	18	42	36 	  58.7	  58.8	  57.6	  56.1	 57.1	 55.3	  58.8	  59.1	  57.8	  55.2	  56.4	  54.2	  42.9	  43.0	  41.7	 1005.9	 1006.6	 1005.7	  54.8	  58.0	  49.0	65616	 65617	 65617	Clear	  53.1	  57.1	  53.0	  0.62	  6.05	 17.97	
2017	04	30	18	42	06 	  58.7	  58.8	  57.6	  56.1	 57.1	 55.3	  58.9	  59.1	  57.8	  55.2	  56.4	  54.2	  42.9	  43.0	  41.7	 1005.9	 1006.7	 1005.7	  53.7	  58.0	  49.0	65616	 65617	 65617	Clear	  53.0	  57.1	  53.0	  0.62	  6.05	 17.97	
2017	04	30	18	41	36 	  58.7	  58.8	  57.6	  56.0	 57.1	 55.3	  58.9	  59.1	  57.8	  55.1	  56.4	  54.2	  42.9	  43.0	  41.7	 1006.0	 1006.7	 1005.7	  53.7	  58.0	  49.0	65616	 65617	 65617	Clear	  53.1	  57.1	  53.0	  0.62	  6.05	 17.97	
2017	04	30	18	41	06 	  58.7	  58.8	  57.6	  56.0	 57.1	 55.3	  59.0	  59.1	  57.8	  55.1	  56.4	  54.2	  42.9	  43.0	  41.7	 1006.0	 1006.7	 1005.7	  53.1	  58.0	  49.0	65616	 65617	 65617	Clear	  53.1	  57.1	  53.0	  0.62	  6.05	 17.97	
2017	04	30	18	40	36 	  58.8	  58.8	  57.6	  56.0	 57.1	 55.3	  59.0	  59.1	  57.8	  55.0	  56.4	  54.2	  42.9	  43.0	  41.7	 1006.0	 1006.7	 1005.7	  53.1	  58.0	  49.0	65616	 65617	 65617	Clear	  53.1	  57.1	  53.0	  0.62	  6.05	 17.97	
2017	04	30	18	40	06 	  58.8	  58.8	  57.6	  55.9	 57.1	 55.3	  59.0	  59.1	  57.8	  55.1	  56.4	  54.2	  42.9	  43.0	  41.7	 1006.1	 1006.7	 1005.7	  53.8	  58.0	  49.0	65616	 65617	 65617	Clear	  53.0	  57.1	  53.0	  0.62	  6.05	 17.97	
2017	04	30	18	39	36 	  58.8	  58.8	  57.6	  55.9	 57.1	 55.3	  59.1	  59.1	  57.8	  55.1	  56.4	  54.2	  42.9	  43.0	  41.7	 1006.1	 1006.7	 1005.7	  53.8	  58.0	  49.0	65616	 65617	 65617	Clear	  53.1	  57.1	  53.0	  0.62	  6.05	 17.97	
2017	04	30	18	39	06 	  58.8	  58.8	  57.6	  55.9	 57.1	 55.3	  59.1	  59.1	  57.8	  55.1	  56.4	  54.2	  42.8	  43.0	  41.7	 1006.1	 1006.7	 1005.7	  56.9	  58.0	  49.0	65616	 65617	 65617	Clear	  53.0	  57.1	  53.0	  0.62	  6.05	 17.97	
2017	04	30	18	38	36 	  58.8	  58.8	  57.6	  55.9	 57.1	 55.3	  59.1	  59.1	  57.8	  55.1	  56.4	  54.2	  42.8	  43.0	  41.7	 1006.0	 1006.7	 1005.7	  56.9	  58.0	  49.0	65616	 65617	 65617	Clear	  53.1	  57.1	  53.0	  0.62	  6.05	 17.97	
2017	04	30	18	38	06 	  58.8	  58.8	  57.5	  55.9	 57.1	 55.3	  59.1	  59.0	  57.8	  55.1	  56.4	  54.2	  42.8	  42.9	  41.7	 1006.0	 1006.7	 1005.7	  58.0	  58.0	  49.0	65616	 65617	 65617	Clear	  53.0	  57.1	  53.0	  0.62	  6.05	 17.97	
2017	04	30	18	37	36 	  58.8	  58.8	  57.5	  55.9	 57.1	 55.3	  59.0	  59.0	  57.8	  55.1	  56.4	  54.2	  42.8	  42.9	  41.7	 1006.0	 1006.7	 1005.7	  58.0	  58.0	  49.0	65616	 65617	 65617	Clear	  53.1	  57.1	  53.0	  0.62	  6.05	 17.97	
2017	04	30	18	37	06 	  58.7	  58.7	  57.4	  55.9	 57.1	 55.3	  59.0	  59.0	  57.6	  55.0	  56.4	  54.2	  42.8	  42.9	  41.7	 1006.0	 1006.8	 1005.7	  55.1	  56.7	  49.0	65616	 65617	 65617	Clear	  53.1	  57.1	  53.0	  0.62	  6.05	 17.97	
2017	04	30	18	36	36 	  58.7	  58.7	  57.4	  55.8	 57.1	 55.3	  59.0	  59.0	  57.6	  55.0	  56.4	  54.2	  42.8	  42.9	  41.7	 1006.0	 1006.8	 1005.7	  55.1	  56.7	  49.0	65616	 65617	 65617	Clear	  53.0	  57.1	  53.0	  0.62	  6.05	 17.97	
2017	04	30	18	36	06 	  58.7	  58.7	  57.2	  55.8	 57.1	 55.3	  59.0	  59.0	  57.5	  54.9	  56.4	  54.2	  42.8	  42.9	  41.6	 1006.0	 1006.8	 1005.7	  53.4	  56.7	  49.0	65616	 65617	 65617	Clear	  53.1	  57.1	  53.0	  0.62	  6.05	 17.97	
2017	04	30	18	35	36 	  58.7	  58.7	  57.2	  55.7	 57.1	 55.3	  59.0	  59.0	  57.5	  54.9	  56.4	  54.2	  42.8	  42.9	  41.6	 1006.0	 1006.8	 1005.7	  53.4	  56.7	  49.0	65616	 65617	 65617	Clear	  53.1	  57.1	  53.0	  0.62	  6.05	 17.97	
2017	04	30	18	35	06 	  58.7	  58.7	  57.1	  55.6	 57.1	 55.3	  59.0	  59.0	  57.3	  54.9	  56.4	  54.2	  42.8	  42.9	  41.4	 1006.0	 1006.8	 1005.7	  53.9	  56.7	  49.0	65616	 65617	 65617	Clear	  53.1	  57.1	  53.0	  0.62	  6.05	 17.97	
2017	04	30	18	34	36 	  58.7	  58.7	  57.1	  55.6	 57.1	 55.3	  59.0	  59.0	  57.3	  54.9	  56.4	  54.2	  42.8	  42.9	  41.4	 1006.0	 1006.8	 1005.7	  53.9	  56.7	  49.0	65616	 65617	 65617	Clear	  53.0	  57.1	  53.0	  0.62	  6.05	 17.97	
2017	04	30	18	34	06 	  58.7	  58.7	  57.0	  55.6	 57.1	 55.3	  59.0	  59.0	  57.2	  54.9	  56.4	  54.2	  42.9	  42.9	  41.3	 1005.9	 1006.8	 1005.7	  53.9	  56.7	  49.0	65616	 65617	 65617	Clear	  53.1	  57.1	  53.0	  0.62	  6.05	 17.97	
2017	04	30	18	33	36 	  58.7	  58.7	  57.0	  55.7	 57.1	 55.3	  59.0	  59.0	  57.2	  54.9	  56.4	  54.2	  42.9	  42.9	  41.3	 1005.9	 1006.8	 1005.7	  53.9	  56.7	  49.0	65616	 65617	 65617	Clear	  53.1	  57.1	  53.0	  0.62	  6.05	 17.97	
2017	04	30	18	33	06 	  58.7	  58.7	  57.0	  55.7	 57.1	 55.3	  59.0	  59.0	  57.1	  54.9	  56.4	  54.2	  42.9	  42.9	  41.2	 1005.9	 1006.8	 1005.7	  52.1	  56.7	  49.0	65616	 65617	 65617	Clear	  53.0	  57.1	  53.0	  0.62	  6.05	 17.97	
2017	04	30	18	32	36 	  58.7	  58.7	  57.0	  55.6	 57.1	 55.3	  59.0	  59.0	  57.1	  54.9	  56.4	  54.2	  42.8	  42.9	  41.2	 1005.8	 1006.8	 1005.7	  52.1	  56.7	  49.0	65616	 65617	 65617	Clear	  53.1	  57.1	  53.0	  0.62	  6.05	 17.97	
2017	04	30	18	32	06 	  58.7	  58.7	  56.9	  55.7	 57.1	 55.3	  59.0	  59.0	  57.1	  55.0	  56.4	  54.2	  42.8	  42.9	  41.1	 1005.8	 1006.8	 1005.7	  50.8	  56.7	  49.0	65616	 65617	 65617	Clear	  53.1	  57.1	  53.0	  0.62	  6.05	 17.97	
2017	04	30	18	31	36 	  58.7	  58.7	  56.9	  55.7	 57.1	 55.3	  59.0	  59.0	  57.1	  55.1	  56.4	  54.2	  42.8	  42.9	  41.1	 1005.8	 1006.8	 1005.7	  50.8	  56.7	  49.0	65616	 65617	 65617	Clear	  53.1	  57.1	  53.0	  0.62	  6.05	 17.97	
2017	04	30	18	31	06 	  58.7	  58.7	  56.8	  55.8	 57.1	 55.3	  59.0	  59.0	  57.0	  55.2	  56.4	  54.2	  42.8	  42.9	  41.0	 1005.7	 1006.8	 1005.7	  52.9	  56.7	  49.0	65616	 65617	 65617	Clear	  53.0	  57.1	  53.0	  0.62	  6.05	 17.97	
2017	04	30	18	30	36 	  58.7	  58.7	  56.8	  55.9	 57.1	 55.3	  59.0	  59.0	  57.0	  55.3	  56.4	  54.2	  42.7	  42.9	  41.0	 1005.8	 1006.8	 1005.7	  52.9	  56.7	  49.0	65616	 65617	 65617	Clear	  53.1	  57.1	  53.0	  0.62	  6.05	 17.97	
2017	04	30	18	30	06 	  58.7	  58.7	  56.8	  56.0	 57.1	 55.3	  58.9	  58.9	  57.0	  55.3	  56.4	  54.2	  42.7	  42.9	  41.0	 1005.8	 1006.8	 1005.7	  54.7	  56.7	  49.0	65616	 65617	 65617	Clear	  53.0	  57.1	  53.0	  0.62	  6.05	 17.97	
2017	04	30	18	29	36 	  58.7	  58.7	  56.8	  56.0	 57.1	 55.3	  58.9	  58.9	  57.0	  55.2	  56.4	  54.2	  42.7	  42.9	  41.0	 1005.9	 1006.8	 1005.7	  54.7	  56.7	  49.0	65616	 65617	 65617	Clear	  53.0	  57.1	  53.0	  0.62	  6.05	 17.97	
2017	04	30	18	29	06 	  58.7	  58.6	  56.8	  55.9	 57.1	 55.3	  58.9	  58.8	  57.0	  55.2	  56.4	  54.2	  42.6	  42.8	  41.0	 1006.0	 1006.8	 1005.7	  55.6	  56.7	  49.0	65616	 65617	 65617	Clear	  53.0	  57.1	  53.0	  0.62	  6.05	 17.97	
2017	04	30	18	28	36 	  58.6	  58.6	  56.8	  55.9	 57.1	 55.3	  58.8	  58.8	  57.0	  55.2	  56.4	  54.2	  42.6	  42.8	  41.0	 1006.0	 1006.8	 1005.7	  55.6	  56.7	  49.0	65616	 65617	 65617	Clear	  53.1	  57.1	  53.0	  0.62	  6.05	 17.97	
2017	04	30	18	28	06 	  58.6	  58.6	  56.7	  55.9	 57.1	 55.3	  58.8	  58.8	  56.9	  55.2	  56.4	  54.2	  42.6	  42.7	  40.9	 1006.0	 1006.8	 1005.7	  56.3	  56.7	  49.0	65616	 65617	 65617	Clear	  53.0	  57.1	  53.0	  0.62	  6.05	 17.97	
2017	04	30	18	27	36 	  58.6	  58.6	  56.7	  56.0	 57.1	 55.3	  58.8	  58.8	  56.9	  55.2	  56.4	  54.2	  42.6	  42.7	  40.9	 1006.1	 1006.8	 1005.7	  56.3	  56.7	  49.0	65616	 65617	 65617	Clear	  53.1	  57.1	  53.0	  0.62	  6.05	 17.97	
2017	04	30	18	27	06 	  58.5	  58.5	  56.7	  55.9	 57.1	 55.3	  58.7	  58.7	  56.9	  55.1	  56.4	  54.2	  42.6	  42.7	  40.9	 1006.1	 1006.8	 1005.7	  56.1	  56.7	  49.0	65616	 65617	 65617	Clear	  53.1	  57.1	  53.0	  0.62	  6.05	 17.97	
2017	04	30	18	26	36 	  58.5	  58.5	  56.7	  55.9	 57.1	 55.3	  58.7	  58.7	  56.9	  55.1	  56.4	  54.2	  42.6	  42.7	  40.9	 1006.1	 1006.8	 1005.7	  56.1	  56.7	  49.0	65616	 65617	 65617	Clear	  53.1	  57.1	  53.0	  0.62	  6.05	 17.97	
2017	04	30	18	26	06 	  58.5	  58.4	  56.7	  55.9	 57.1	 55.3	  58.7	  58.6	  56.9	  55.1	  56.4	  54.2	  42.6	  42.7	  40.9	 1006.1	 1006.8	 1005.7	  55.1	  56.7	  48.5	65616	 65617	 65617	Clear	  53.0	  57.1	  53.0	  0.62	  6.05	 17.97	
2017	04	30	18	25	36 	  58.4	  58.4	  56.7	  55.8	 57.1	 55.3	  58.6	  58.6	  56.9	  55.0	  56.4	  54.2	  42.6	  42.7	  40.9	 1006.1	 1006.8	 1005.7	  55.1	  56.7	  48.5	65616	 65617	 65617	Clear	  53.0	  57.1	  53.0	  0.62	  6.05	 17.97	
2017	04	30	18	25	06 	  58.4	  58.4	  56.7	  55.8	 57.1	 55.3	  58.6	  58.6	  56.9	  55.1	  56.4	  54.2	  42.6	  42.7	  40.9	 1006.1	 1006.8	 1005.7	  53.5	  56.7	  48.5	65616	 65617	 65617	Clear	  53.0	  57.1	  53.0	  0.62	  6.05	 17.97	
2017	04	30	18	24	36 	  58.4	  58.4	  56.7	  56.0	 57.1	 55.3	  58.6	  58.6	  56.9	  55.2	  56.4	  54.2	  42.6	  42.7	  40.9	 1006.0	 1006.8	 1005.7	  53.5	  56.7	  48.5	65616	 65617	 65617	Clear	  53.1	  57.1	  53.0	  0.62	  6.05	 17.97	
2017	04	30	18	24	06 	  58.4	  58.3	  56.7	  56.0	 57.1	 55.3	  58.6	  58.5	  56.9	  55.3	  56.4	  54.2	  42.6	  42.7	  40.9	 1006.0	 1006.8	 1005.7	  53.5	  56.7	  48.5	65616	 65617	 65617	Clear	  53.0	  57.1	  53.0	  0.62	  6.05	 17.97	
2017	04	30	18	23	36 	  58.3	  58.3	  56.7	  56.1	 57.1	 55.3	  58.5	  58.5	  56.9	  55.4	  56.4	  54.2	  42.6	  42.7	  40.9	 1006.0	 1006.8	 1005.7	  53.5	  56.7	  48.5	65616	 65617	 65617	Clear	  53.0	  57.1	  53.0	  0.62	  6.05	 17.97	
2017	04	30	18	23	06 	  58.3	  58.3	  56.7	  56.2	 57.1	 55.3	  58.5	  58.5	  56.9	  55.5	  56.4	  54.2	  42.6	  42.7	  40.9	 1006.0	 1006.8	 1005.7	  53.5	  56.7	  48.5	65616	 65617	 65617	Clear	  53.1	  57.1	  53.0	  0.62	  6.05	 17.97	
2017	04	30	18	22	36 	  58.3	  58.3	  56.7	  56.3	 57.1	 55.3	  58.5	  58.5	  56.9	  55.6	  56.4	  54.2	  42.6	  42.7	  40.9	 1005.9	 1006.8	 1005.7	  53.5	  56.7	  48.5	65616	 65617	 65617	Clear	  53.1	  57.1	  53.0	  0.62	  6.05	 17.97	
2017	04	30	18	22	06 	  58.2	  58.2	  56.7	  56.4	 57.1	 55.3	  58.4	  58.4	  56.9	  55.8	  56.4	  54.2	  42.5	  42.7	  40.9	 1005.9	 1006.8	 1005.7	  52.4	  56.7	  48.5	65616	 65617	 65617	Clear	  53.1	  57.1	  53.0	  0.62	  6.05	 17.97	
2017	04	30	18	21	36 	  58.2	  58.2	  56.7	  56.5	 57.1	 55.3	  58.4	  58.4	  56.9	  55.8	  56.4	  54.2	  42.5	  42.7	  40.9	 1005.9	 1006.8	 1005.7	  52.4	  56.7	  48.5	65616	 65617	 65617	Clear	  53.1	  57.1	  53.0	  0.62	  6.05	 17.97	
2017	04	30	18	21	06 	  58.2	  58.1	  56.7	  56.5	 57.1	 55.3	  58.3	  58.3	  56.9	  55.9	  56.4	  54.2	  42.5	  42.6	  40.9	 1005.9	 1006.8	 1005.7	  53.9	  56.7	  48.5	65616	 65617	 65617	Clear	  53.1	  57.1	  53.0	  0.62	  6.05	 17.97	
2017	04	30	18	20	36 	  58.1	  58.1	  56.7	  56.6	 57.1	 55.3	  58.3	  58.3	  56.9	  56.0	  56.4	  54.2	  42.4	  42.6	  40.9	 1005.9	 1006.8	 1005.7	  53.9	  56.7	  48.5	65616	 65617	 65617	Clear	  53.0	  57.1	  53.0	  0.62	  6.05	 17.97	
2017	04	30	18	20	06 	  58.1	  58.0	  56.6	  56.6	 57.1	 55.3	  58.2	  58.3	  56.8	  56.0	  56.4	  54.2	  42.4	  42.6	  40.9	 1005.9	 1006.8	 1005.7	  55.9	  56.7	  48.5	65616	 65617	 65617	Clear	  53.0	  57.1	  53.0	  0.62	  6.05	 17.97	

Wind data

Year   mnth   day   hh    mm     ss       ff    dd

2017	04	30	20	24	51 	   7.6	   25	
2017	04	30	20	24	21 	   6.0	  350	
2017	04	30	20	23	51 	   6.0	   65	
2017	04	30	20	23	21 	   7.8	   69	
2017	04	30	20	22	51 	   4.5	   20	
2017	04	30	20	22	21 	   5.8	   26	
2017	04	30	20	21	51 	   4.7	   49	
2017	04	30	20	21	21 	   6.7	   53	
2017	04	30	20	20	51 	   1.6	    0	
2017	04	30	20	20	21 	   6.3	   17	
2017	04	30	20	19	51 	   5.6	    9	
2017	04	30	20	19	21 	   3.1	  352	
2017	04	30	20	18	51 	   3.4	   11	
2017	04	30	20	18	21 	   3.8	   30	
2017	04	30	20	17	51 	   6.0	   42	
2017	04	30	20	17	21 	   2.9	   44	
2017	04	30	20	16	51 	   2.7	  341	
2017	04	30	20	16	21 	   4.3	   30	
2017	04	30	20	15	51 	   3.8	    0	
2017	04	30	20	15	21 	   3.4	   32	
2017	04	30	20	14	51 	   4.5	   14	
2017	04	30	20	14	21 	   1.8	   51	
2017	04	30	20	13	51 	   1.6	  335	
2017	04	30	20	13	21 	   3.1	   21	
2017	04	30	20	12	51 	   2.0	    6	
2017	04	30	20	12	21 	   3.1	   50	
2017	04	30	20	11	51 	   4.0	   49	
2017	04	30	20	11	21 	   4.9	   51	
2017	04	30	20	10	51 	   2.0	   49	
2017	04	30	20	10	21 	   4.3	   69	
2017	04	30	20	09	51 	   4.5	   67	
2017	04	30	20	09	21 	   6.5	   30	
2017	04	30	20	08	51 	   7.6	   49	
2017	04	30	20	08	21 	   6.5	   60	
2017	04	30	20	07	51 	   6.0	   55	
2017	04	30	20	07	21 	   1.6	    0	
2017	04	30	20	06	51 	   3.8	   50	
2017	04	30	20	06	21 	   4.0	   34	
2017	04	30	20	05	51 	   8.7	   40	
2017	04	30	20	05	21 	   3.4	   32	
2017	04	30	20	04	51 	   5.1	   24	
2017	04	30	20	04	21 	   6.0	   75	
2017	04	30	20	03	51 	   4.0	   62	
2017	04	30	20	03	21 	   5.8	   59	
2017	04	30	20	02	51 	   6.5	   23	
2017	04	30	20	02	21 	   4.7	   30	
2017	04	30	20	01	51 	   6.5	   51	
2017	04	30	20	01	21 	   2.0	  103	
2017	04	30	20	00	51 	   4.3	   84	
2017	04	30	20	00	21 	   2.9	   32	
2017	04	30	19	59	51 	   2.9	   58	
2017	04	30	19	59	21 	   2.7	   71	
2017	04	30	19	58	51 	   1.1	  349	
2017	04	30	19	58	21 	   4.3	   35	
2017	04	30	19	57	51 	   3.4	   15	
2017	04	30	19	57	21 	   2.2	   53	
2017	04	30	19	56	51 	   1.6	    0	
2017	04	30	19	56	21 	   4.9	   59	
2017	04	30	19	55	51 	   1.3	  330	
2017	04	30	19	55	21 	   4.3	   81	
2017	04	30	19	54	51 	   6.0	   25	
2017	04	30	19	54	21 	   3.1	   35	
2017	04	30	19	53	51 	   2.5	   21	
2017	04	30	19	53	21 	   4.5	   50	
2017	04	30	19	52	51 	   8.7	   22	
2017	04	30	19	52	21 	   4.5	  357	
2017	04	30	19	51	51 	   4.9	   21	
2017	04	30	19	51	21 	   5.6	    2	
2017	04	30	19	50	51 	   1.8	  330	
2017	04	30	19	50	21 	   3.1	   55	
2017	04	30	19	49	51 	   3.8	   50	
2017	04	30	19	49	21 	   4.5	   70	
2017	04	30	19	48	51 	   4.0	   46	
2017	04	30	19	48	21 	   3.4	   58	
2017	04	30	19	47	51 	   2.0	   71	
2017	04	30	19	47	21 	   2.2	   60	
2017	04	30	19	46	51 	   2.0	    6	
2017	04	30	19	46	21 	   3.6	   47	
2017	04	30	19	45	51 	   2.0	  341	
2017	04	30	19	45	21 	   1.8	    7	
2017	04	30	19	44	51 	   2.7	    5	
2017	04	30	19	44	21 	   3.1	   35	
2017	04	30	19	43	51 	   4.3	   35	
2017	04	30	19	43	21 	   4.5	   37	
2017	04	30	19	42	51 	   3.6	   58	
2017	04	30	19	42	21 	   4.0	   23	
2017	04	30	19	41	51 	   4.5	   67	
2017	04	30	19	41	21 	   2.0	   64	
2017	04	30	19	40	51 	   3.4	   79	
2017	04	30	19	40	21 	   2.9	   63	
2017	04	30	19	39	51 	   2.2	   73	
2017	04	30	19	39	21 	   5.4	   56	
2017	04	30	19	38	51 	   4.0	   32	
2017	04	30	19	38	21 	   2.2	   11	
2017	04	30	19	37	51 	   3.8	   73	
2017	04	30	19	37	21 	   6.9	   64	
2017	04	30	19	36	51 	   5.8	   61	
2017	04	30	19	36	21 	   6.3	   94	
2017	04	30	19	35	51 	   5.8	  122	
2017	04	30	19	35	21 	   4.9	   66	
2017	04	30	19	34	51 	   6.7	   75	
2017	04	30	19	34	21 	   7.4	   78	
2017	04	30	19	33	51 	   3.1	  115	
2017	04	30	19	33	21 	   5.1	   73	
2017	04	30	19	32	51 	   5.6	   99	
2017	04	30	19	32	21 	   4.0	   90	
2017	04	30	19	31	51 	   4.7	   71	
2017	04	30	19	31	21 	   4.3	   90	
2017	04	30	19	30	51 	   4.9	   66	
2017	04	30	19	30	21 	   7.6	  111	
2017	04	30	19	29	51 	   5.4	   71	
2017	04	30	19	29	21 	   3.8	  100	
2017	04	30	19	28	51 	   5.4	   76	
2017	04	30	19	28	21 	   5.6	   69	
2017	04	30	19	27	51 	   4.9	   59	
2017	04	30	19	27	21 	   6.7	  111	
2017	04	30	19	26	51 	   4.7	   63	
2017	04	30	19	26	21 	   6.0	   50	
2017	04	30	19	25	51 	   6.3	   59	
2017	04	30	19	25	21 	   4.9	   66	
2017	04	30	19	24	51 	   5.8	   77	
2017	04	30	19	24	21 	   8.7	   68	
2017	04	30	19	23	51 	   4.5	   99	
2017	04	30	19	23	21 	   4.3	   81	
2017	04	30	19	22	51 	   2.2	   79	
2017	04	30	19	22	21 	   4.0	   87	
2017	04	30	19	21	51 	   4.5	   70	
2017	04	30	19	21	21 	   3.1	   86	
2017	04	30	19	20	51 	   4.7	  104	
2017	04	30	19	20	21 	   4.0	   59	
2017	04	30	19	19	51 	   5.8	   84	
2017	04	30	19	19	21 	   5.8	   49	
2017	04	30	19	18	51 	   6.7	   67	
2017	04	30	19	18	21 	   7.4	   82	
2017	04	30	19	17	51 	   5.6	   88	
2017	04	30	19	17	21 	   3.6	   87	
2017	04	30	19	16	51 	   5.6	   97	
2017	04	30	19	16	21 	   5.6	   90	
2017	04	30	19	15	51 	   6.0	   90	
2017	04	30	19	15	21 	   2.0	   84	
2017	04	30	19	14	51 	   5.6	   79	
2017	04	30	19	14	21 	   4.5	   96	
2017	04	30	19	13	51 	   8.5	   94	
2017	04	30	19	13	21 	   6.9	   83	
2017	04	30	19	12	51 	   9.2	   87	
2017	04	30	19	12	21 	   7.2	   87	
2017	04	30	19	11	51 	   8.7	  101	
2017	04	30	19	11	21 	   6.5	   88	
2017	04	30	19	10	51 	   6.0	  107	
2017	04	30	19	10	21 	   3.6	  116	
2017	04	30	19	09	51 	   5.8	   99	
2017	04	30	19	09	21 	   5.6	   83	
2017	04	30	19	08	51 	   4.5	  104	
2017	04	30	19	08	21 	   6.0	   73	
2017	04	30	19	07	51 	   4.3	   65	
2017	04	30	19	07	21 	   7.2	   81	
2017	04	30	19	06	51 	   8.3	  102	
2017	04	30	19	06	21 	   5.8	   92	
2017	04	30	19	05	51 	   7.8	  112	
2017	04	30	19	05	21 	   7.4	  102	
2017	04	30	19	04	51 	   5.8	   92	
2017	04	30	19	04	21 	   6.7	  100	
2017	04	30	19	03	51 	   6.5	  102	
2017	04	30	19	03	21 	   6.7	  117	
2017	04	30	19	02	51 	   6.7	   92	
2017	04	30	19	02	21 	   9.6	   75	
2017	04	30	19	01	51 	  12.8	   94	
2017	04	30	19	01	21 	   4.9	   87	
2017	04	30	19	00	51 	   5.1	   80	
2017	04	30	19	00	21 	   7.2	   99	
2017	04	30	18	59	51 	   7.6	   85	
2017	04	30	18	59	21 	   3.4	  118	
2017	04	30	18	58	51 	   5.1	   98	
2017	04	30	18	58	21 	   7.4	   90	
2017	04	30	18	57	51 	   5.1	   88	
2017	04	30	18	57	21 	   5.4	   88	
2017	04	30	18	56	51 	   4.5	   93	
2017	04	30	18	56	21 	   4.5	   93	
2017	04	30	18	55	51 	   4.0	  113	
2017	04	30	18	55	21 	   8.5	   93	
2017	04	30	18	54	51 	   6.7	  100	
2017	04	30	18	54	21 	  10.7	   90	
2017	04	30	18	53	51 	   8.9	   90	
2017	04	30	18	53	21 	   5.6	   81	
2017	04	30	18	52	51 	   6.7	  109	
2017	04	30	18	52	21 	   4.5	  107	
2017	04	30	18	51	51 	   5.4	   97	
2017	04	30	18	51	21 	   5.6	   79	
2017	04	30	18	50	51 	   4.9	  117	
2017	04	30	18	50	21 	   5.4	  109	
2017	04	30	18	49	51 	   3.4	   98	
2017	04	30	18	49	21 	   5.4	   95	
2017	04	30	18	48	51 	   4.7	   90	
2017	04	30	18	48	21 	   7.4	   92	
2017	04	30	18	47	51 	   8.1	   97	
2017	04	30	18	47	21 	  11.2	  105	
2017	04	30	18	46	51 	   6.7	   90	
2017	04	30	18	46	21 	   4.3	  102	
2017	04	30	18	45	51 	   7.6	   87	
2017	04	30	18	45	21 	  11.0	  108	
2017	04	30	18	44	51 	   9.8	   78	
2017	04	30	18	44	21 	   7.4	   90	
2017	04	30	18	43	51 	  13.6	   90	
2017	04	30	18	43	21 	   7.6	   99	
2017	04	30	18	42	51 	   5.4	   90	
2017	04	30	18	42	21 	   4.9	   90	
2017	04	30	18	41	51 	   4.5	   76	
2017	04	30	18	41	21 	   7.2	   53	
2017	04	30	18	40	51 	  10.5	   60	
2017	04	30	18	40	21 	   6.5	   60	
2017	04	30	18	39	51 	   8.1	   81	
2017	04	30	18	39	21 	   8.7	   84	
2017	04	30	18	38	51 	   8.1	   54	
2017	04	30	18	38	21 	   5.8	   49	
2017	04	30	18	37	51 	   6.0	   73	
2017	04	30	18	37	21 	   8.7	   22	
2017	04	30	18	36	51 	   4.0	   93	
2017	04	30	18	36	21 	   5.6	  120	
2017	04	30	18	35	51 	   5.6	   67	
2017	04	30	18	35	21 	   8.5	  113	
2017	04	30	18	34	51 	   6.7	  103	
2017	04	30	18	34	21 	   5.6	  118	
2017	04	30	18	33	51 	   6.7	   77	
2017	04	30	18	33	21 	   8.3	   87	
2017	04	30	18	32	51 	   8.5	  110	
2017	04	30	18	32	21 	   6.0	  109	
2017	04	30	18	31	51 	   9.4	   94	
2017	04	30	18	31	21 	  13.2	  100	
2017	04	30	18	30	51 	  15.2	  104	
2017	04	30	18	30	21 	  13.0	   88	
2017	04	30	18	29	51 	  12.1	   99	
2017	04	30	18	29	21 	   6.0	   92	
2017	04	30	18	28	51 	   9.6	  121	
2017	04	30	18	28	21 	   6.5	  104	
2017	04	30	18	27	51 	   8.7	  101	
2017	04	30	18	27	21 	   7.4	   71	
2017	04	30	18	26	51 	   5.4	  117	
2017	04	30	18	26	21 	   6.0	   90	
2017	04	30	18	25	51 	   5.1	  108	
2017	04	30	18	25	21 	   6.0	   75	
2017	04	30	18	24	51 	   3.6	   68	
2017	04	30	18	24	21 	   7.6	   68	
2017	04	30	18	23	51 	   6.5	   60	
2017	04	30	18	23	21 	   7.4	   71	
2017	04	30	18	22	51 	   9.4	   93	
2017	04	30	18	22	21 	   8.5	  119	
2017	04	30	18	21	51 	   8.9	  110	
2017	04	30	18	21	21 	   7.8	  131	
2017	04	30	18	20	51 	   7.8	  107	
2017	04	30	18	20	21 	  14.3	   95	
2017	04	30	18	19	51 	   4.9	   80	
2017	04	30	18	19	21 	   6.0	   82	
2017	04	30	18	18	51 	   5.8	   77	
2017	04	30	18	18	21 	   5.4	   97	
2017	04	30	18	17	51 	   5.6	  111	
2017	04	30	18	17	21 	   6.0	   99	
2017	04	30	18	16	51 	   5.4	  102	
2017	04	30	18	16	21 	   6.7	   88	
2017	04	30	18	15	51 	  12.1	  108	
2017	04	30	18	15	21 	   7.4	   76	
2017	04	30	18	14	51 	   6.5	   90	
2017	04	30	18	14	21 	   9.4	  101	
2017	04	30	18	13	51 	   6.7	  113	
2017	04	30	18	13	21 	   8.5	  107	
2017	04	30	18	12	51 	   8.5	  101	
2017	04	30	18	12	21 	   8.7	   97	
2017	04	30	18	11	51 	   3.8	   97	
2017	04	30	18	11	21 	   7.4	   74	
2017	04	30	18	10	51 	  10.1	   89	
2017	04	30	18	10	21 	  14.3	   91	
2017	04	30	18	09	51 	  15.2	  107	
2017	04	30	18	09	21 	   9.2	   82	
2017	04	30	18	08	51 	   7.8	   82	
2017	04	30	18	08	21 	   6.9	   75	
2017	04	30	18	07	51 	   8.9	   93	
2017	04	30	18	07	21 	   3.8	   80	
2017	04	30	18	06	51 	   4.3	   93	
2017	04	30	18	06	21 	   7.4	   90	
2017	04	30	18	05	51 	   5.8	   92	
2017	04	30	18	05	21 	   6.0	   99	
2017	04	30	18	04	51 	   5.6	   67	
2017	04	30	18	04	21 	   2.9	   63	
2017	04	30	18	03	51 	   5.1	  110	
2017	04	30	18	03	21 	   8.1	   85	
2017	04	30	18	02	51 	   6.3	   59	
2017	04	30	18	02	21 	  10.7	   91	
2017	04	30	18	01	51 	   9.2	   65	
2017	04	30	18	01	21 	   7.4	   83	
2017	04	30	18	00	51 	   9.8	   94	
2017	04	30	18	00	21 	  13.0	  103	
2017	04	30	17	59	51 	   8.9	   82	
2017	04	30	17	59	21 	  11.2	  119	
2017	04	30	17	58	51 	   8.7	   78	
2017	04	30	17	58	21 	  14.5	   96	
2017	04	30	17	57	51 	   9.6	   82	
2017	04	30	17	57	21 	   5.4	   68	
2017	04	30	17	56	51 	   9.2	  100	
2017	04	30	17	56	21 	   8.5	   99	
2017	04	30	17	55	51 	   9.2	   90	
2017	04	30	17	55	21 	  10.7	   84	
2017	04	30	17	54	51 	  14.3	   95	
2017	04	30	17	54	21 	  11.6	   97	
2017	04	30	17	53	50 	  10.3	   89	
2017	04	30	17	53	20 	   5.8	  122	
2017	04	30	17	52	51 	   5.1	  116	
2017	04	30	17	52	20 	   7.8	   93	
2017	04	30	17	51	50 	   8.1	  117	
2017	04	30	17	51	20 	  11.0	  109	
2017	04	30	17	50	50 	   8.3	  106	
2017	04	30	17	50	20 	  13.2	  102	
2017	04	30	17	49	50 	   6.3	  125	
2017	04	30	17	49	20 	   7.4	  111	
2017	04	30	17	48	50 	   7.2	   90	
2017	04	30	17	48	20 	   9.2	  123	
2017	04	30	17	47	50 	   6.0	   99	
2017	04	30	17	47	20 	   9.8	   98	
2017	04	30	17	46	50 	   8.5	  121	
2017	04	30	17	46	20 	   8.7	  103	
2017	04	30	17	45	50 	   8.3	   73	
2017	04	30	17	45	20 	   7.4	  113	
2017	04	30	17	44	50 	   8.1	   97	
2017	04	30	17	44	20 	   6.3	   76	
2017	04	30	17	43	50 	   3.8	   70	
2017	04	30	17	43	20 	   7.4	   83	
2017	04	30	17	42	50 	   8.7	   78	
2017	04	30	17	42	20 	   6.9	  109	
2017	04	30	17	41	50 	  10.5	  120	
2017	04	30	17	41	20 	   8.5	   80	
2017	04	30	17	40	50 	   9.4	   86	
2017	04	30	17	40	20 	  10.5	  114	
2017	04	30	17	39	50 	   9.4	  108	
2017	04	30	17	39	20 	   5.6	   99	
2017	04	30	17	38	50 	   5.6	   90	
2017	04	30	17	38	20 	   7.8	   66	
2017	04	30	17	37	50 	   6.7	   86	
2017	04	30	17	37	20 	   2.5	  106	
2017	04	30	17	36	50 	   5.1	   80	
2017	04	30	17	36	20 	   4.5	  101	
2017	04	30	17	35	50 	   4.9	   72	
2017	04	30	17	35	20 	   5.4	  120	
2017	04	30	17	34	50 	   7.2	   85	
2017	04	30	17	34	20 	   6.9	   58	
2017	04	30	17	33	50 	   7.4	   71	
2017	04	30	17	33	20 	   5.4	   76	
2017	04	30	17	32	50 	   5.8	   84	
2017	04	30	17	32	20 	   5.4	   88	
2017	04	30	17	31	50 	   7.6	  119	
2017	04	30	17	31	20 	   4.3	   84	
2017	04	30	17	30	50 	   2.5	   57	
2017	04	30	17	30	20 	   7.4	  102	
2017	04	30	17	29	50 	   9.4	   79	
2017	04	30	17	29	20 	   8.5	   64	
2017	04	30	17	28	50 	   7.6	   92	
2017	04	30	17	28	20 	   4.5	   87	
2017	04	30	17	27	50 	   3.8	   77	
2017	04	30	17	27	20 	  10.7	  100	
2017	04	30	17	26	50 	   8.5	  115	
2017	04	30	17	26	20 	   7.4	   97	
2017	04	30	17	25	50 	   9.6	   85	
2017	04	30	17	25	20 	  15.4	  104	
2017	04	30	17	24	50 	   6.7	   75	
2017	04	30	17	24	20 	  11.0	   92	
2017	04	30	17	23	50 	   8.5	   77	
2017	04	30	17	23	20 	  10.1	   99	
2017	04	30	17	22	50 	   9.8	   74	
2017	04	30	17	22	20 	  10.1	   81	
2017	04	30	17	21	50 	   6.9	   90	
2017	04	30	17	21	20 	   5.8	   61	
2017	04	30	17	20	50 	   4.0	  113	
2017	04	30	17	20	20 	   4.3	   72	
2017	04	30	17	19	50 	   6.5	   88	
2017	04	30	17	19	20 	   9.2	   82	
2017	04	30	17	18	50 	   7.6	   92	
2017	04	30	17	18	20 	   8.3	  101	
2017	04	30	17	17	50 	   5.8	   79	
2017	04	30	17	17	20 	   5.4	   81	
2017	04	30	17	16	50 	   4.5	  134	
2017	04	30	17	16	20 	   6.9	   92	
2017	04	30	17	15	50 	   6.7	   88	
2017	04	30	17	15	20 	   5.1	   90	
2017	04	30	17	14	50 	   6.7	  107	
2017	04	30	17	14	20 	   6.7	   65	
2017	04	30	17	13	50 	   5.4	   78	
2017	04	30	17	13	20 	   7.6	  104	
2017	04	30	17	12	50 	   5.1	   92	
2017	04	30	17	12	20 	   7.2	   92	
2017	04	30	17	11	50 	   2.9	  108	
2017	04	30	17	11	20 	   8.1	   90	
2017	04	30	17	10	50 	   5.6	   90	
2017	04	30	17	10	20 	   7.2	   87	
2017	04	30	17	09	50 	   6.0	   80	
2017	04	30	17	09	20 	   4.5	   70	
2017	04	30	17	08	50 	   5.4	   90	
2017	04	30	17	08	20 	   6.7	   88	
2017	04	30	17	07	50 	   6.7	   90	
2017	04	30	17	07	20 	   6.7	  107	
2017	04	30	17	06	50 	   5.6	  111	
2017	04	30	17	06	20 	   6.3	  104	
2017	04	30	17	05	50 	   4.5	   73	
2017	04	30	17	05	20 	   6.7	   53	
2017	04	30	17	04	50 	   8.9	   91	
2017	04	30	17	04	20 	   5.1	   85	
2017	04	30	17	03	50 	   4.3	   90	
2017	04	30	17	03	20 	  12.5	   97	
2017	04	30	17	02	50 	   6.3	  109	
2017	04	30	17	02	20 	   8.9	   94	
2017	04	30	17	01	50 	   5.6	   92	
2017	04	30	17	01	20 	  11.2	   72	
2017	04	30	17	00	50 	   6.9	   83	
2017	04	30	17	00	20 	   6.9	   83	
2017	04	30	16	59	50 	   5.6	  116	
2017	04	30	16	59	20 	   5.8	   86	
2017	04	30	16	58	50 	   9.4	   87	
2017	04	30	16	58	20 	   4.0	   81	
2017	04	30	16	57	50 	   7.6	  100	
2017	04	30	16	57	20 	   4.0	   74	
2017	04	30	16	56	50 	   3.6	   97	
2017	04	30	16	56	20 	   6.5	   60	
2017	04	30	16	55	50 	   4.7	   77	
2017	04	30	16	55	20 	   7.4	   71	
2017	04	30	16	54	50 	   6.9	   94	
2017	04	30	16	54	20 	   8.9	   69	
2017	04	30	16	53	50 	   7.8	   92	
2017	04	30	16	53	20 	   9.8	  110	
2017	04	30	16	52	50 	   9.2	   97	
2017	04	30	16	52	20 	   7.6	   90	
2017	04	30	16	51	50 	  10.7	   95	
2017	04	30	16	51	20 	   4.3	   84	
2017	04	30	16	50	50 	   8.3	   99	
2017	04	30	16	50	20 	   7.4	   99	
2017	04	30	16	49	50 	   6.9	   54	
2017	04	30	16	49	20 	   9.6	  105	
2017	04	30	16	48	50 	  12.3	   71	
2017	04	30	16	48	20 	   5.8	   64	
2017	04	30	16	47	50 	   4.5	   59	
2017	04	30	16	47	20 	   3.6	   60	
2017	04	30	16	46	50 	   4.5	   62	
2017	04	30	16	46	20 	   6.0	   32	
2017	04	30	16	45	50 	   6.7	    4	
2017	04	30	16	45	20 	   4.5	   73	
2017	04	30	16	44	50 	   7.2	   41	
2017	04	30	16	44	20 	   6.7	   50	
2017	04	30	16	43	50 	   6.3	   24	
2017	04	30	16	43	20 	   3.6	  332	
2017	04	30	16	42	50 	   7.8	   24	
2017	04	30	16	42	20 	   4.7	   33	
2017	04	30	16	41	50 	   4.9	   62	
2017	04	30	16	41	20 	   4.7	   14	
2017	04	30	16	40	50 	   5.6	   23	
2017	04	30	16	40	20 	   6.9	   19	
2017	04	30	16	39	50 	   3.4	  345	
2017	04	30	16	39	20 	   4.3	   65	
2017	04	30	16	38	50 	   1.6	   74	
2017	04	30	16	38	20 	   0.4	  330	
2017	04	30	16	37	50 	   0.9	   76	
2017	04	30	16	37	20 	   9.6	   54	
2017	04	30	16	36	50 	   3.4	   15	
2017	04	30	16	36	20 	   2.7	    5	
2017	04	30	16	35	50 	   3.8	   24	
2017	04	30	16	35	20 	   7.6	   63	
2017	04	30	16	34	50 	   4.5	   67	
2017	04	30	16	34	20 	   5.8	   68	
2017	04	30	16	33	50 	   3.8	   70	
2017	04	30	16	33	20 	   7.2	   47	
2017	04	30	16	32	50 	   3.8	   21	
2017	04	30	16	32	20 	   5.1	    7	
2017	04	30	16	31	50 	   4.3	   22	
2017	04	30	16	31	20 	   2.7	   24	
2017	04	30	16	30	50 	   6.5	   67	
2017	04	30	16	30	20 	   7.4	   48	
2017	04	30	16	29	50 	   1.8	    0	
2017	04	30	16	29	20 	   4.3	   51	
2017	04	30	16	28	50 	   8.1	   25	
2017	04	30	16	28	20 	   8.1	   38	
2017	04	30	16	27	50 	   4.7	   52	
2017	04	30	16	27	20 	   7.6	   61	
2017	04	30	16	26	50 	   7.6	   40	
2017	04	30	16	26	20 	   4.5	   67	
2017	04	30	16	25	50 	   7.4	   66	
2017	04	30	16	25	20 	   7.2	   72	


Time [Local Time: 24 hour], Temperatures [F], RH [%], Pressure [hPa], Visibility [feet], and Precipitation [Inches]

Max & min values for TT_2m and TT_10m, Tch_2m, RH, PP, and Visibility are over last hour

Max & min values for ground temperature Tg are over the last 24 hours

Meteorological wind direction dd [degrees], Wind Speed ff [mph]; winds are instantaneous values